<?xml version="1.0" encoding="UTF-8" standalone="no" ?>
<gpx xmlns="http://www.topografix.com/GPX/1/1" xmlns:xsi="http://www.w3.org/2001/XMLSchema-instance" xsi:schemaLocation="http://www.topografix.com/GPX/1/1 http://www.topografix.com/GPX/1/1/gpx.xsd" version="1.1" creator="VisuGPX - https://www.visugpx.com">
  <metadata>
    <name>Les Ocres de Mormoiron</name>
    <desc><![CDATA[Balade au départ du lac des Salettes à Mormoiron au travers des carrières d'ocres.]]></desc>
  </metadata>
  <trk>
    <name><![CDATA[2018-06-18 14:24:45]]></name>
    <trkseg>
      <trkpt lat="44.06944" lon="5.19696">
        <ele>181.35</ele>
        <time>2018-06-18T07:41:42Z</time>
      </trkpt>
      <trkpt lat="44.0694" lon="5.197">
        <ele>182.31</ele>
        <time>2018-06-18T07:42:13Z</time>
      </trkpt>
      <trkpt lat="44.06939" lon="5.19695">
        <ele>181.35</ele>
        <time>2018-06-18T07:42:36Z</time>
      </trkpt>
      <trkpt lat="44.06938" lon="5.19693">
        <ele>184.23</ele>
        <time>2018-06-18T07:42:44Z</time>
      </trkpt>
      <trkpt lat="44.06936" lon="5.19695">
        <ele>183.27</ele>
        <time>2018-06-18T07:43:08Z</time>
      </trkpt>
      <trkpt lat="44.06939" lon="5.19694">
        <ele>184.71</ele>
        <time>2018-06-18T07:43:18Z</time>
      </trkpt>
      <trkpt lat="44.06934" lon="5.19695">
        <ele>185.19</ele>
        <time>2018-06-18T07:43:32Z</time>
      </trkpt>
      <trkpt lat="44.06923" lon="5.19699">
        <ele>185.67</ele>
        <time>2018-06-18T07:43:47Z</time>
      </trkpt>
      <trkpt lat="44.06914" lon="5.19701">
        <ele>186.15</ele>
        <time>2018-06-18T07:43:57Z</time>
      </trkpt>
      <trkpt lat="44.06898" lon="5.19704">
        <ele>186.63</ele>
        <time>2018-06-18T07:44:11Z</time>
      </trkpt>
      <trkpt lat="44.06886" lon="5.19715">
        <ele>187.11</ele>
        <time>2018-06-18T07:44:27Z</time>
      </trkpt>
      <trkpt lat="44.06875" lon="5.19727">
        <ele>187.59</ele>
        <time>2018-06-18T07:44:43Z</time>
      </trkpt>
      <trkpt lat="44.06873" lon="5.19729">
        <ele>188.56</ele>
        <time>2018-06-18T07:44:46Z</time>
      </trkpt>
      <trkpt lat="44.0686" lon="5.1975">
        <ele>190</ele>
        <time>2018-06-18T07:45:04Z</time>
      </trkpt>
      <trkpt lat="44.0685" lon="5.19764">
        <ele>191.44</ele>
        <time>2018-06-18T07:45:20Z</time>
      </trkpt>
      <trkpt lat="44.06836" lon="5.19776">
        <ele>191.92</ele>
        <time>2018-06-18T07:45:34Z</time>
      </trkpt>
      <trkpt lat="44.06824" lon="5.19785">
        <ele>193.36</ele>
        <time>2018-06-18T07:45:47Z</time>
      </trkpt>
      <trkpt lat="44.06813" lon="5.1979">
        <ele>194.32</ele>
        <time>2018-06-18T07:46:00Z</time>
      </trkpt>
      <trkpt lat="44.06807" lon="5.19795">
        <ele>194.8</ele>
        <time>2018-06-18T07:46:11Z</time>
      </trkpt>
      <trkpt lat="44.06793" lon="5.19798">
        <ele>195.77</ele>
        <time>2018-06-18T07:46:26Z</time>
      </trkpt>
      <trkpt lat="44.06779" lon="5.19803">
        <ele>197.21</ele>
        <time>2018-06-18T07:46:40Z</time>
      </trkpt>
      <trkpt lat="44.06767" lon="5.1981">
        <ele>198.17</ele>
        <time>2018-06-18T07:46:52Z</time>
      </trkpt>
      <trkpt lat="44.06755" lon="5.19818">
        <ele>198.65</ele>
        <time>2018-06-18T07:47:05Z</time>
      </trkpt>
      <trkpt lat="44.06745" lon="5.19832">
        <ele>200.09</ele>
        <time>2018-06-18T07:47:18Z</time>
      </trkpt>
      <trkpt lat="44.06738" lon="5.19844">
        <ele>200.57</ele>
        <time>2018-06-18T07:47:31Z</time>
      </trkpt>
      <trkpt lat="44.06729" lon="5.19861">
        <ele>201.53</ele>
        <time>2018-06-18T07:47:46Z</time>
      </trkpt>
      <trkpt lat="44.0672" lon="5.19878">
        <ele>202.01</ele>
        <time>2018-06-18T07:48:01Z</time>
      </trkpt>
      <trkpt lat="44.06707" lon="5.19899">
        <ele>203.46</ele>
        <time>2018-06-18T07:48:19Z</time>
      </trkpt>
      <trkpt lat="44.06704" lon="5.19914">
        <ele>203.46</ele>
        <time>2018-06-18T07:48:33Z</time>
      </trkpt>
      <trkpt lat="44.06703" lon="5.19921">
        <ele>204.9</ele>
        <time>2018-06-18T07:48:41Z</time>
      </trkpt>
      <trkpt lat="44.06703" lon="5.19943">
        <ele>206.82</ele>
        <time>2018-06-18T07:48:56Z</time>
      </trkpt>
      <trkpt lat="44.06694" lon="5.19956">
        <ele>208.74</ele>
        <time>2018-06-18T07:49:09Z</time>
      </trkpt>
      <trkpt lat="44.06684" lon="5.19963">
        <ele>210.19</ele>
        <time>2018-06-18T07:49:25Z</time>
      </trkpt>
      <trkpt lat="44.06674" lon="5.19959">
        <ele>211.15</ele>
        <time>2018-06-18T07:49:37Z</time>
      </trkpt>
      <trkpt lat="44.06658" lon="5.19947">
        <ele>211.15</ele>
        <time>2018-06-18T07:49:53Z</time>
      </trkpt>
      <trkpt lat="44.06648" lon="5.19944">
        <ele>212.11</ele>
        <time>2018-06-18T07:50:08Z</time>
      </trkpt>
      <trkpt lat="44.06635" lon="5.1995">
        <ele>213.55</ele>
        <time>2018-06-18T07:50:20Z</time>
      </trkpt>
      <trkpt lat="44.06623" lon="5.19962">
        <ele>215.95</ele>
        <time>2018-06-18T07:50:35Z</time>
      </trkpt>
      <trkpt lat="44.06609" lon="5.19968">
        <ele>218.84</ele>
        <time>2018-06-18T07:50:51Z</time>
      </trkpt>
      <trkpt lat="44.06595" lon="5.19976">
        <ele>220.28</ele>
        <time>2018-06-18T07:51:06Z</time>
      </trkpt>
      <trkpt lat="44.06588" lon="5.19989">
        <ele>220.76</ele>
        <time>2018-06-18T07:51:20Z</time>
      </trkpt>
      <trkpt lat="44.06583" lon="5.19996">
        <ele>221.24</ele>
        <time>2018-06-18T07:51:29Z</time>
      </trkpt>
      <trkpt lat="44.06582" lon="5.19998">
        <ele>218.84</ele>
        <time>2018-06-18T07:51:31Z</time>
      </trkpt>
      <trkpt lat="44.06572" lon="5.20003">
        <ele>220.28</ele>
        <time>2018-06-18T07:51:45Z</time>
      </trkpt>
      <trkpt lat="44.06563" lon="5.19995">
        <ele>221.72</ele>
        <time>2018-06-18T07:52:01Z</time>
      </trkpt>
      <trkpt lat="44.06551" lon="5.20001">
        <ele>223.64</ele>
        <time>2018-06-18T07:52:16Z</time>
      </trkpt>
      <trkpt lat="44.06542" lon="5.20004">
        <ele>227.01</ele>
        <time>2018-06-18T07:52:31Z</time>
      </trkpt>
      <trkpt lat="44.06534" lon="5.2001">
        <ele>228.45</ele>
        <time>2018-06-18T07:52:43Z</time>
      </trkpt>
      <trkpt lat="44.06529" lon="5.20015">
        <ele>230.37</ele>
        <time>2018-06-18T07:52:56Z</time>
      </trkpt>
      <trkpt lat="44.06524" lon="5.2002">
        <ele>233.74</ele>
        <time>2018-06-18T07:53:12Z</time>
      </trkpt>
      <trkpt lat="44.06517" lon="5.20025">
        <ele>236.14</ele>
        <time>2018-06-18T07:53:28Z</time>
      </trkpt>
      <trkpt lat="44.06512" lon="5.20031">
        <ele>238.54</ele>
        <time>2018-06-18T07:53:42Z</time>
      </trkpt>
      <trkpt lat="44.06508" lon="5.20039">
        <ele>240.95</ele>
        <time>2018-06-18T07:53:57Z</time>
      </trkpt>
      <trkpt lat="44.06503" lon="5.20037">
        <ele>243.83</ele>
        <time>2018-06-18T07:54:14Z</time>
      </trkpt>
      <trkpt lat="44.06496" lon="5.20037">
        <ele>246.72</ele>
        <time>2018-06-18T07:54:31Z</time>
      </trkpt>
      <trkpt lat="44.06495" lon="5.20038">
        <ele>247.2</ele>
        <time>2018-06-18T07:54:58Z</time>
      </trkpt>
      <trkpt lat="44.06497" lon="5.20034">
        <ele>248.16</ele>
        <time>2018-06-18T07:55:24Z</time>
      </trkpt>
      <trkpt lat="44.06492" lon="5.2003">
        <ele>248.64</ele>
        <time>2018-06-18T07:55:52Z</time>
      </trkpt>
      <trkpt lat="44.06491" lon="5.20028">
        <ele>249.6</ele>
        <time>2018-06-18T07:56:23Z</time>
      </trkpt>
      <trkpt lat="44.06491" lon="5.20026">
        <ele>250.56</ele>
        <time>2018-06-18T07:56:58Z</time>
      </trkpt>
      <trkpt lat="44.06488" lon="5.20013">
        <ele>251.52</ele>
        <time>2018-06-18T07:57:35Z</time>
      </trkpt>
      <trkpt lat="44.06489" lon="5.20019">
        <ele>252.48</ele>
        <time>2018-06-18T07:58:10Z</time>
      </trkpt>
      <trkpt lat="44.0649" lon="5.20027">
        <ele>252.96</ele>
        <time>2018-06-18T07:58:26Z</time>
      </trkpt>
      <trkpt lat="44.06492" lon="5.20039">
        <ele>253.44</ele>
        <time>2018-06-18T07:58:44Z</time>
      </trkpt>
      <trkpt lat="44.065" lon="5.20045">
        <ele>253.93</ele>
        <time>2018-06-18T07:59:05Z</time>
      </trkpt>
      <trkpt lat="44.0651" lon="5.20062">
        <ele>252</ele>
        <time>2018-06-18T07:59:23Z</time>
      </trkpt>
      <trkpt lat="44.06514" lon="5.2008">
        <ele>252</ele>
        <time>2018-06-18T07:59:37Z</time>
      </trkpt>
      <trkpt lat="44.06515" lon="5.201">
        <ele>252.48</ele>
        <time>2018-06-18T07:59:53Z</time>
      </trkpt>
      <trkpt lat="44.06509" lon="5.20117">
        <ele>252.48</ele>
        <time>2018-06-18T08:00:07Z</time>
      </trkpt>
      <trkpt lat="44.06508" lon="5.20119">
        <ele>253.93</ele>
        <time>2018-06-18T08:00:09Z</time>
      </trkpt>
      <trkpt lat="44.06504" lon="5.20126">
        <ele>253.93</ele>
        <time>2018-06-18T08:00:15Z</time>
      </trkpt>
      <trkpt lat="44.06504" lon="5.20128">
        <ele>252</ele>
        <time>2018-06-18T08:00:17Z</time>
      </trkpt>
      <trkpt lat="44.06504" lon="5.2013">
        <ele>254.89</ele>
        <time>2018-06-18T08:00:18Z</time>
      </trkpt>
      <trkpt lat="44.06502" lon="5.2013">
        <ele>254.41</ele>
        <time>2018-06-18T08:00:20Z</time>
      </trkpt>
      <trkpt lat="44.065" lon="5.20144">
        <ele>255.85</ele>
        <time>2018-06-18T08:00:30Z</time>
      </trkpt>
      <trkpt lat="44.065" lon="5.20164">
        <ele>257.29</ele>
        <time>2018-06-18T08:00:46Z</time>
      </trkpt>
      <trkpt lat="44.06497" lon="5.20186">
        <ele>258.73</ele>
        <time>2018-06-18T08:01:02Z</time>
      </trkpt>
      <trkpt lat="44.0649" lon="5.20204">
        <ele>261.14</ele>
        <time>2018-06-18T08:01:19Z</time>
      </trkpt>
      <trkpt lat="44.06486" lon="5.20217">
        <ele>263.06</ele>
        <time>2018-06-18T08:01:33Z</time>
      </trkpt>
      <trkpt lat="44.06487" lon="5.20236">
        <ele>265.46</ele>
        <time>2018-06-18T08:01:49Z</time>
      </trkpt>
      <trkpt lat="44.06484" lon="5.20254">
        <ele>267.38</ele>
        <time>2018-06-18T08:02:04Z</time>
      </trkpt>
      <trkpt lat="44.06482" lon="5.2027">
        <ele>269.79</ele>
        <time>2018-06-18T08:02:21Z</time>
      </trkpt>
      <trkpt lat="44.06477" lon="5.20284">
        <ele>272.19</ele>
        <time>2018-06-18T08:02:35Z</time>
      </trkpt>
      <trkpt lat="44.06468" lon="5.20295">
        <ele>274.59</ele>
        <time>2018-06-18T08:02:51Z</time>
      </trkpt>
      <trkpt lat="44.06462" lon="5.20304">
        <ele>277.48</ele>
        <time>2018-06-18T08:03:07Z</time>
      </trkpt>
      <trkpt lat="44.06461" lon="5.20315">
        <ele>279.4</ele>
        <time>2018-06-18T08:03:21Z</time>
      </trkpt>
      <trkpt lat="44.06462" lon="5.20316">
        <ele>281.32</ele>
        <time>2018-06-18T08:03:34Z</time>
      </trkpt>
      <trkpt lat="44.06465" lon="5.20318">
        <ele>281.8</ele>
        <time>2018-06-18T08:03:58Z</time>
      </trkpt>
      <trkpt lat="44.06463" lon="5.20327">
        <ele>281.32</ele>
        <time>2018-06-18T08:04:14Z</time>
      </trkpt>
      <trkpt lat="44.06462" lon="5.20329">
        <ele>282.77</ele>
        <time>2018-06-18T08:04:16Z</time>
      </trkpt>
      <trkpt lat="44.06466" lon="5.20349">
        <ele>285.17</ele>
        <time>2018-06-18T08:04:33Z</time>
      </trkpt>
      <trkpt lat="44.06471" lon="5.20357">
        <ele>286.13</ele>
        <time>2018-06-18T08:04:48Z</time>
      </trkpt>
      <trkpt lat="44.06471" lon="5.20361">
        <ele>286.61</ele>
        <time>2018-06-18T08:05:16Z</time>
      </trkpt>
      <trkpt lat="44.06479" lon="5.20367">
        <ele>285.65</ele>
        <time>2018-06-18T08:05:37Z</time>
      </trkpt>
      <trkpt lat="44.06481" lon="5.20383">
        <ele>285.17</ele>
        <time>2018-06-18T08:05:54Z</time>
      </trkpt>
      <trkpt lat="44.06479" lon="5.20399">
        <ele>285.17</ele>
        <time>2018-06-18T08:06:08Z</time>
      </trkpt>
      <trkpt lat="44.06477" lon="5.20417">
        <ele>284.69</ele>
        <time>2018-06-18T08:06:23Z</time>
      </trkpt>
      <trkpt lat="44.06474" lon="5.20442">
        <ele>284.69</ele>
        <time>2018-06-18T08:06:40Z</time>
      </trkpt>
      <trkpt lat="44.06473" lon="5.20467">
        <ele>286.13</ele>
        <time>2018-06-18T08:06:58Z</time>
      </trkpt>
      <trkpt lat="44.06472" lon="5.20486">
        <ele>285.17</ele>
        <time>2018-06-18T08:07:14Z</time>
      </trkpt>
      <trkpt lat="44.06471" lon="5.20506">
        <ele>284.69</ele>
        <time>2018-06-18T08:07:30Z</time>
      </trkpt>
      <trkpt lat="44.06467" lon="5.20521">
        <ele>284.69</ele>
        <time>2018-06-18T08:07:44Z</time>
      </trkpt>
      <trkpt lat="44.06467" lon="5.20535">
        <ele>284.21</ele>
        <time>2018-06-18T08:07:52Z</time>
      </trkpt>
      <trkpt lat="44.06471" lon="5.20539">
        <ele>286.13</ele>
        <time>2018-06-18T08:07:56Z</time>
      </trkpt>
      <trkpt lat="44.06489" lon="5.20554">
        <ele>284.69</ele>
        <time>2018-06-18T08:08:12Z</time>
      </trkpt>
      <trkpt lat="44.06501" lon="5.20566">
        <ele>286.61</ele>
        <time>2018-06-18T08:08:26Z</time>
      </trkpt>
      <trkpt lat="44.06503" lon="5.20568">
        <ele>286.61</ele>
        <time>2018-06-18T08:08:28Z</time>
      </trkpt>
      <trkpt lat="44.06516" lon="5.20588">
        <ele>286.61</ele>
        <time>2018-06-18T08:08:45Z</time>
      </trkpt>
      <trkpt lat="44.06513" lon="5.20615">
        <ele>287.57</ele>
        <time>2018-06-18T08:09:02Z</time>
      </trkpt>
      <trkpt lat="44.06508" lon="5.20629">
        <ele>289.49</ele>
        <time>2018-06-18T08:09:15Z</time>
      </trkpt>
      <trkpt lat="44.06509" lon="5.20632">
        <ele>286.61</ele>
        <time>2018-06-18T08:09:17Z</time>
      </trkpt>
      <trkpt lat="44.06508" lon="5.20633">
        <ele>291.42</ele>
        <time>2018-06-18T08:09:18Z</time>
      </trkpt>
      <trkpt lat="44.06508" lon="5.20634">
        <ele>289.01</ele>
        <time>2018-06-18T08:09:19Z</time>
      </trkpt>
      <trkpt lat="44.06507" lon="5.20637">
        <ele>285.17</ele>
        <time>2018-06-18T08:09:21Z</time>
      </trkpt>
      <trkpt lat="44.06507" lon="5.2064">
        <ele>291.9</ele>
        <time>2018-06-18T08:09:23Z</time>
      </trkpt>
      <trkpt lat="44.06506" lon="5.20641">
        <ele>288.53</ele>
        <time>2018-06-18T08:09:24Z</time>
      </trkpt>
      <trkpt lat="44.06505" lon="5.2064">
        <ele>291.9</ele>
        <time>2018-06-18T08:09:26Z</time>
      </trkpt>
      <trkpt lat="44.06499" lon="5.20666">
        <ele>289.97</ele>
        <time>2018-06-18T08:09:42Z</time>
      </trkpt>
      <trkpt lat="44.06498" lon="5.2067">
        <ele>291.42</ele>
        <time>2018-06-18T08:09:47Z</time>
      </trkpt>
      <trkpt lat="44.06498" lon="5.20674">
        <ele>290.46</ele>
        <time>2018-06-18T08:09:53Z</time>
      </trkpt>
      <trkpt lat="44.06496" lon="5.20696">
        <ele>291.42</ele>
        <time>2018-06-18T08:10:09Z</time>
      </trkpt>
      <trkpt lat="44.06492" lon="5.20719">
        <ele>292.86</ele>
        <time>2018-06-18T08:10:26Z</time>
      </trkpt>
      <trkpt lat="44.0649" lon="5.20738">
        <ele>292.86</ele>
        <time>2018-06-18T08:10:42Z</time>
      </trkpt>
      <trkpt lat="44.06488" lon="5.20749">
        <ele>291.9</ele>
        <time>2018-06-18T08:10:52Z</time>
      </trkpt>
      <trkpt lat="44.06489" lon="5.20773">
        <ele>290.94</ele>
        <time>2018-06-18T08:11:08Z</time>
      </trkpt>
      <trkpt lat="44.06489" lon="5.20795">
        <ele>290.46</ele>
        <time>2018-06-18T08:11:23Z</time>
      </trkpt>
      <trkpt lat="44.06485" lon="5.20821">
        <ele>289.49</ele>
        <time>2018-06-18T08:11:40Z</time>
      </trkpt>
      <trkpt lat="44.06478" lon="5.20849">
        <ele>289.01</ele>
        <time>2018-06-18T08:11:58Z</time>
      </trkpt>
      <trkpt lat="44.06471" lon="5.2087">
        <ele>288.53</ele>
        <time>2018-06-18T08:12:15Z</time>
      </trkpt>
      <trkpt lat="44.06467" lon="5.20889">
        <ele>287.09</ele>
        <time>2018-06-18T08:12:30Z</time>
      </trkpt>
      <trkpt lat="44.06463" lon="5.20913">
        <ele>286.61</ele>
        <time>2018-06-18T08:12:47Z</time>
      </trkpt>
      <trkpt lat="44.06463" lon="5.20918">
        <ele>286.61</ele>
        <time>2018-06-18T08:12:50Z</time>
      </trkpt>
      <trkpt lat="44.06462" lon="5.2093">
        <ele>286.61</ele>
        <time>2018-06-18T08:12:58Z</time>
      </trkpt>
      <trkpt lat="44.06457" lon="5.20949">
        <ele>287.09</ele>
        <time>2018-06-18T08:13:12Z</time>
      </trkpt>
      <trkpt lat="44.06445" lon="5.20951">
        <ele>287.09</ele>
        <time>2018-06-18T08:13:23Z</time>
      </trkpt>
      <trkpt lat="44.06429" lon="5.20949">
        <ele>288.53</ele>
        <time>2018-06-18T08:13:38Z</time>
      </trkpt>
      <trkpt lat="44.06428" lon="5.20949">
        <ele>288.53</ele>
        <time>2018-06-18T08:13:39Z</time>
      </trkpt>
      <trkpt lat="44.0641" lon="5.20948">
        <ele>289.49</ele>
        <time>2018-06-18T08:13:54Z</time>
      </trkpt>
      <trkpt lat="44.06396" lon="5.20943">
        <ele>290.46</ele>
        <time>2018-06-18T08:14:07Z</time>
      </trkpt>
      <trkpt lat="44.06387" lon="5.2094">
        <ele>290.46</ele>
        <time>2018-06-18T08:14:15Z</time>
      </trkpt>
      <trkpt lat="44.0638" lon="5.2094">
        <ele>290.94</ele>
        <time>2018-06-18T08:14:32Z</time>
      </trkpt>
      <trkpt lat="44.06376" lon="5.20938">
        <ele>291.42</ele>
        <time>2018-06-18T08:14:45Z</time>
      </trkpt>
      <trkpt lat="44.06371" lon="5.20936">
        <ele>292.38</ele>
        <time>2018-06-18T08:15:16Z</time>
      </trkpt>
      <trkpt lat="44.06366" lon="5.20934">
        <ele>287.57</ele>
        <time>2018-06-18T08:15:21Z</time>
      </trkpt>
      <trkpt lat="44.06365" lon="5.20933">
        <ele>291.9</ele>
        <time>2018-06-18T08:15:22Z</time>
      </trkpt>
      <trkpt lat="44.06364" lon="5.20933">
        <ele>295.74</ele>
        <time>2018-06-18T08:15:23Z</time>
      </trkpt>
      <trkpt lat="44.06364" lon="5.20933">
        <ele>292.86</ele>
        <time>2018-06-18T08:15:24Z</time>
      </trkpt>
      <trkpt lat="44.06344" lon="5.20929">
        <ele>291.42</ele>
        <time>2018-06-18T08:15:42Z</time>
      </trkpt>
      <trkpt lat="44.06342" lon="5.20931">
        <ele>291.42</ele>
        <time>2018-06-18T08:15:44Z</time>
      </trkpt>
      <trkpt lat="44.06339" lon="5.20937">
        <ele>288.53</ele>
        <time>2018-06-18T08:15:49Z</time>
      </trkpt>
      <trkpt lat="44.06338" lon="5.20939">
        <ele>293.82</ele>
        <time>2018-06-18T08:15:50Z</time>
      </trkpt>
      <trkpt lat="44.06338" lon="5.20939">
        <ele>289.97</ele>
        <time>2018-06-18T08:15:51Z</time>
      </trkpt>
      <trkpt lat="44.06337" lon="5.20942">
        <ele>293.34</ele>
        <time>2018-06-18T08:15:54Z</time>
      </trkpt>
      <trkpt lat="44.06337" lon="5.20945">
        <ele>290.94</ele>
        <time>2018-06-18T08:15:56Z</time>
      </trkpt>
      <trkpt lat="44.06325" lon="5.20969">
        <ele>289.97</ele>
        <time>2018-06-18T08:16:17Z</time>
      </trkpt>
      <trkpt lat="44.06313" lon="5.20951">
        <ele>288.05</ele>
        <time>2018-06-18T08:16:37Z</time>
      </trkpt>
      <trkpt lat="44.06305" lon="5.20935">
        <ele>287.09</ele>
        <time>2018-06-18T08:16:51Z</time>
      </trkpt>
      <trkpt lat="44.06291" lon="5.20911">
        <ele>285.17</ele>
        <time>2018-06-18T08:17:10Z</time>
      </trkpt>
      <trkpt lat="44.06277" lon="5.20876">
        <ele>282.77</ele>
        <time>2018-06-18T08:17:34Z</time>
      </trkpt>
      <trkpt lat="44.06267" lon="5.20845">
        <ele>281.8</ele>
        <time>2018-06-18T08:17:57Z</time>
      </trkpt>
      <trkpt lat="44.06243" lon="5.20829">
        <ele>281.32</ele>
        <time>2018-06-18T08:18:20Z</time>
      </trkpt>
      <trkpt lat="44.06225" lon="5.20801">
        <ele>279.88</ele>
        <time>2018-06-18T08:18:47Z</time>
      </trkpt>
      <trkpt lat="44.06211" lon="5.20779">
        <ele>277.48</ele>
        <time>2018-06-18T08:19:07Z</time>
      </trkpt>
      <trkpt lat="44.06202" lon="5.20759">
        <ele>275.56</ele>
        <time>2018-06-18T08:19:25Z</time>
      </trkpt>
      <trkpt lat="44.06197" lon="5.20742">
        <ele>274.59</ele>
        <time>2018-06-18T08:19:37Z</time>
      </trkpt>
      <trkpt lat="44.06184" lon="5.20728">
        <ele>273.15</ele>
        <time>2018-06-18T08:19:54Z</time>
      </trkpt>
      <trkpt lat="44.06164" lon="5.20704">
        <ele>270.75</ele>
        <time>2018-06-18T08:20:18Z</time>
      </trkpt>
      <trkpt lat="44.06159" lon="5.20678">
        <ele>268.35</ele>
        <time>2018-06-18T08:20:37Z</time>
      </trkpt>
      <trkpt lat="44.06154" lon="5.20649">
        <ele>265.94</ele>
        <time>2018-06-18T08:20:57Z</time>
      </trkpt>
      <trkpt lat="44.06147" lon="5.20621">
        <ele>265.94</ele>
        <time>2018-06-18T08:21:15Z</time>
      </trkpt>
      <trkpt lat="44.06138" lon="5.20588">
        <ele>265.46</ele>
        <time>2018-06-18T08:21:36Z</time>
      </trkpt>
      <trkpt lat="44.06124" lon="5.2056">
        <ele>265.94</ele>
        <time>2018-06-18T08:21:56Z</time>
      </trkpt>
      <trkpt lat="44.06106" lon="5.2055">
        <ele>265.94</ele>
        <time>2018-06-18T08:22:13Z</time>
      </trkpt>
      <trkpt lat="44.06104" lon="5.20549">
        <ele>267.38</ele>
        <time>2018-06-18T08:22:15Z</time>
      </trkpt>
      <trkpt lat="44.06087" lon="5.20518">
        <ele>267.86</ele>
        <time>2018-06-18T08:22:38Z</time>
      </trkpt>
      <trkpt lat="44.06085" lon="5.20506">
        <ele>266.9</ele>
        <time>2018-06-18T08:22:51Z</time>
      </trkpt>
      <trkpt lat="44.06087" lon="5.20502">
        <ele>266.42</ele>
        <time>2018-06-18T08:23:12Z</time>
      </trkpt>
      <trkpt lat="44.06083" lon="5.20498">
        <ele>266.9</ele>
        <time>2018-06-18T08:23:45Z</time>
      </trkpt>
      <trkpt lat="44.06073" lon="5.20479">
        <ele>265.46</ele>
        <time>2018-06-18T08:24:00Z</time>
      </trkpt>
      <trkpt lat="44.06054" lon="5.20461">
        <ele>263.54</ele>
        <time>2018-06-18T08:24:22Z</time>
      </trkpt>
      <trkpt lat="44.06047" lon="5.20429">
        <ele>262.58</ele>
        <time>2018-06-18T08:24:42Z</time>
      </trkpt>
      <trkpt lat="44.06047" lon="5.20392">
        <ele>261.14</ele>
        <time>2018-06-18T08:25:05Z</time>
      </trkpt>
      <trkpt lat="44.06049" lon="5.20357">
        <ele>259.21</ele>
        <time>2018-06-18T08:25:27Z</time>
      </trkpt>
      <trkpt lat="44.0606" lon="5.2032">
        <ele>256.81</ele>
        <time>2018-06-18T08:25:52Z</time>
      </trkpt>
      <trkpt lat="44.06071" lon="5.20289">
        <ele>254.89</ele>
        <time>2018-06-18T08:26:16Z</time>
      </trkpt>
      <trkpt lat="44.0608" lon="5.20258">
        <ele>252.96</ele>
        <time>2018-06-18T08:26:39Z</time>
      </trkpt>
      <trkpt lat="44.06083" lon="5.20225">
        <ele>252</ele>
        <time>2018-06-18T08:27:01Z</time>
      </trkpt>
      <trkpt lat="44.06082" lon="5.20194">
        <ele>251.04</ele>
        <time>2018-06-18T08:27:22Z</time>
      </trkpt>
      <trkpt lat="44.06075" lon="5.20159">
        <ele>250.08</ele>
        <time>2018-06-18T08:27:46Z</time>
      </trkpt>
      <trkpt lat="44.0607" lon="5.20138">
        <ele>249.6</ele>
        <time>2018-06-18T08:28:08Z</time>
      </trkpt>
      <trkpt lat="44.0607" lon="5.20131">
        <ele>250.08</ele>
        <time>2018-06-18T08:28:34Z</time>
      </trkpt>
      <trkpt lat="44.06064" lon="5.20114">
        <ele>249.6</ele>
        <time>2018-06-18T08:28:50Z</time>
      </trkpt>
      <trkpt lat="44.0606" lon="5.20116">
        <ele>249.12</ele>
        <time>2018-06-18T08:28:55Z</time>
      </trkpt>
      <trkpt lat="44.06054" lon="5.20121">
        <ele>248.64</ele>
        <time>2018-06-18T08:29:02Z</time>
      </trkpt>
      <trkpt lat="44.06042" lon="5.20149">
        <ele>247.68</ele>
        <time>2018-06-18T08:29:24Z</time>
      </trkpt>
      <trkpt lat="44.06038" lon="5.20157">
        <ele>246.72</ele>
        <time>2018-06-18T08:29:31Z</time>
      </trkpt>
      <trkpt lat="44.06019" lon="5.20169">
        <ele>245.27</ele>
        <time>2018-06-18T08:29:52Z</time>
      </trkpt>
      <trkpt lat="44.06003" lon="5.20176">
        <ele>244.31</ele>
        <time>2018-06-18T08:30:08Z</time>
      </trkpt>
      <trkpt lat="44.05994" lon="5.20177">
        <ele>242.87</ele>
        <time>2018-06-18T08:30:23Z</time>
      </trkpt>
      <trkpt lat="44.05982" lon="5.20178">
        <ele>240.95</ele>
        <time>2018-06-18T08:30:38Z</time>
      </trkpt>
      <trkpt lat="44.05966" lon="5.20185">
        <ele>239.02</ele>
        <time>2018-06-18T08:30:55Z</time>
      </trkpt>
      <trkpt lat="44.05951" lon="5.202">
        <ele>237.1</ele>
        <time>2018-06-18T08:31:13Z</time>
      </trkpt>
      <trkpt lat="44.05938" lon="5.20212">
        <ele>236.62</ele>
        <time>2018-06-18T08:31:29Z</time>
      </trkpt>
      <trkpt lat="44.0592" lon="5.2023">
        <ele>234.7</ele>
        <time>2018-06-18T08:31:50Z</time>
      </trkpt>
      <trkpt lat="44.05902" lon="5.20247">
        <ele>233.74</ele>
        <time>2018-06-18T08:32:11Z</time>
      </trkpt>
      <trkpt lat="44.05883" lon="5.20261">
        <ele>233.26</ele>
        <time>2018-06-18T08:32:30Z</time>
      </trkpt>
      <trkpt lat="44.05865" lon="5.20273">
        <ele>232.3</ele>
        <time>2018-06-18T08:32:48Z</time>
      </trkpt>
      <trkpt lat="44.05849" lon="5.20285">
        <ele>231.33</ele>
        <time>2018-06-18T08:33:05Z</time>
      </trkpt>
      <trkpt lat="44.05831" lon="5.20298">
        <ele>230.37</ele>
        <time>2018-06-18T08:33:25Z</time>
      </trkpt>
      <trkpt lat="44.05815" lon="5.20305">
        <ele>228.45</ele>
        <time>2018-06-18T08:33:44Z</time>
      </trkpt>
      <trkpt lat="44.05798" lon="5.20307">
        <ele>227.01</ele>
        <time>2018-06-18T08:34:02Z</time>
      </trkpt>
      <trkpt lat="44.05782" lon="5.20312">
        <ele>225.09</ele>
        <time>2018-06-18T08:34:19Z</time>
      </trkpt>
      <trkpt lat="44.05766" lon="5.20323">
        <ele>225.09</ele>
        <time>2018-06-18T08:34:35Z</time>
      </trkpt>
      <trkpt lat="44.05748" lon="5.20333">
        <ele>224.61</ele>
        <time>2018-06-18T08:34:53Z</time>
      </trkpt>
      <trkpt lat="44.05731" lon="5.20344">
        <ele>224.12</ele>
        <time>2018-06-18T08:35:12Z</time>
      </trkpt>
      <trkpt lat="44.05728" lon="5.20347">
        <ele>224.12</ele>
        <time>2018-06-18T08:35:28Z</time>
      </trkpt>
      <trkpt lat="44.05729" lon="5.20351">
        <ele>224.12</ele>
        <time>2018-06-18T08:35:52Z</time>
      </trkpt>
      <trkpt lat="44.05727" lon="5.20348">
        <ele>224.12</ele>
        <time>2018-06-18T08:36:11Z</time>
      </trkpt>
      <trkpt lat="44.05724" lon="5.20345">
        <ele>224.12</ele>
        <time>2018-06-18T08:36:28Z</time>
      </trkpt>
      <trkpt lat="44.05724" lon="5.20343">
        <ele>225.57</ele>
        <time>2018-06-18T08:36:31Z</time>
      </trkpt>
      <trkpt lat="44.05724" lon="5.20342">
        <ele>223.64</ele>
        <time>2018-06-18T08:36:33Z</time>
      </trkpt>
      <trkpt lat="44.05719" lon="5.20338">
        <ele>223.64</ele>
        <time>2018-06-18T08:37:08Z</time>
      </trkpt>
      <trkpt lat="44.05721" lon="5.20345">
        <ele>223.64</ele>
        <time>2018-06-18T08:37:44Z</time>
      </trkpt>
      <trkpt lat="44.05723" lon="5.20346">
        <ele>224.12</ele>
        <time>2018-06-18T08:38:24Z</time>
      </trkpt>
      <trkpt lat="44.05722" lon="5.20346">
        <ele>224.12</ele>
        <time>2018-06-18T08:39:01Z</time>
      </trkpt>
      <trkpt lat="44.05725" lon="5.20342">
        <ele>224.61</ele>
        <time>2018-06-18T08:39:37Z</time>
      </trkpt>
      <trkpt lat="44.05722" lon="5.20345">
        <ele>224.61</ele>
        <time>2018-06-18T08:40:21Z</time>
      </trkpt>
      <trkpt lat="44.05723" lon="5.20353">
        <ele>225.09</ele>
        <time>2018-06-18T08:41:04Z</time>
      </trkpt>
      <trkpt lat="44.05719" lon="5.20344">
        <ele>225.09</ele>
        <time>2018-06-18T08:41:40Z</time>
      </trkpt>
      <trkpt lat="44.05717" lon="5.20346">
        <ele>225.57</ele>
        <time>2018-06-18T08:42:18Z</time>
      </trkpt>
      <trkpt lat="44.05722" lon="5.20343">
        <ele>225.57</ele>
        <time>2018-06-18T08:43:04Z</time>
      </trkpt>
      <trkpt lat="44.05725" lon="5.20343">
        <ele>227.97</ele>
        <time>2018-06-18T08:43:32Z</time>
      </trkpt>
      <trkpt lat="44.05729" lon="5.20342">
        <ele>228.45</ele>
        <time>2018-06-18T08:43:48Z</time>
      </trkpt>
      <trkpt lat="44.0573" lon="5.20344">
        <ele>228.45</ele>
        <time>2018-06-18T08:44:03Z</time>
      </trkpt>
      <trkpt lat="44.0573" lon="5.20346">
        <ele>228.45</ele>
        <time>2018-06-18T08:44:17Z</time>
      </trkpt>
      <trkpt lat="44.05726" lon="5.20349">
        <ele>228.45</ele>
        <time>2018-06-18T08:44:30Z</time>
      </trkpt>
      <trkpt lat="44.05726" lon="5.20351">
        <ele>228.93</ele>
        <time>2018-06-18T08:45:01Z</time>
      </trkpt>
      <trkpt lat="44.05726" lon="5.2035">
        <ele>228.93</ele>
        <time>2018-06-18T08:45:30Z</time>
      </trkpt>
      <trkpt lat="44.05727" lon="5.2035">
        <ele>229.41</ele>
        <time>2018-06-18T08:45:59Z</time>
      </trkpt>
      <trkpt lat="44.05725" lon="5.20349">
        <ele>229.41</ele>
        <time>2018-06-18T08:46:26Z</time>
      </trkpt>
      <trkpt lat="44.05725" lon="5.2035">
        <ele>229.41</ele>
        <time>2018-06-18T08:46:42Z</time>
      </trkpt>
      <trkpt lat="44.05726" lon="5.2035">
        <ele>229.89</ele>
        <time>2018-06-18T08:47:10Z</time>
      </trkpt>
      <trkpt lat="44.05725" lon="5.2035">
        <ele>229.89</ele>
        <time>2018-06-18T08:47:43Z</time>
      </trkpt>
      <trkpt lat="44.05723" lon="5.2035">
        <ele>229.89</ele>
        <time>2018-06-18T08:48:04Z</time>
      </trkpt>
      <trkpt lat="44.05723" lon="5.2035">
        <ele>230.37</ele>
        <time>2018-06-18T08:48:33Z</time>
      </trkpt>
      <trkpt lat="44.05722" lon="5.20345">
        <ele>231.33</ele>
        <time>2018-06-18T08:48:46Z</time>
      </trkpt>
      <trkpt lat="44.05727" lon="5.20333">
        <ele>233.26</ele>
        <time>2018-06-18T08:49:01Z</time>
      </trkpt>
      <trkpt lat="44.05729" lon="5.20326">
        <ele>233.26</ele>
        <time>2018-06-18T08:49:06Z</time>
      </trkpt>
      <trkpt lat="44.05733" lon="5.20305">
        <ele>234.7</ele>
        <time>2018-06-18T08:49:23Z</time>
      </trkpt>
      <trkpt lat="44.05738" lon="5.20285">
        <ele>232.78</ele>
        <time>2018-06-18T08:49:39Z</time>
      </trkpt>
      <trkpt lat="44.05741" lon="5.20272">
        <ele>232.78</ele>
        <time>2018-06-18T08:49:48Z</time>
      </trkpt>
      <trkpt lat="44.05744" lon="5.2024">
        <ele>232.78</ele>
        <time>2018-06-18T08:50:08Z</time>
      </trkpt>
      <trkpt lat="44.05749" lon="5.2021">
        <ele>232.78</ele>
        <time>2018-06-18T08:50:29Z</time>
      </trkpt>
      <trkpt lat="44.0575" lon="5.202">
        <ele>234.22</ele>
        <time>2018-06-18T08:50:37Z</time>
      </trkpt>
      <trkpt lat="44.05752" lon="5.20178">
        <ele>236.62</ele>
        <time>2018-06-18T08:50:54Z</time>
      </trkpt>
      <trkpt lat="44.05757" lon="5.20163">
        <ele>238.54</ele>
        <time>2018-06-18T08:51:09Z</time>
      </trkpt>
      <trkpt lat="44.05762" lon="5.20158">
        <ele>239.02</ele>
        <time>2018-06-18T08:51:16Z</time>
      </trkpt>
      <trkpt lat="44.05774" lon="5.20141">
        <ele>241.43</ele>
        <time>2018-06-18T08:51:36Z</time>
      </trkpt>
      <trkpt lat="44.05777" lon="5.20125">
        <ele>243.35</ele>
        <time>2018-06-18T08:51:51Z</time>
      </trkpt>
      <trkpt lat="44.05783" lon="5.20108">
        <ele>244.79</ele>
        <time>2018-06-18T08:52:07Z</time>
      </trkpt>
      <trkpt lat="44.0578" lon="5.20114">
        <ele>244.79</ele>
        <time>2018-06-18T08:52:23Z</time>
      </trkpt>
      <trkpt lat="44.05778" lon="5.20123">
        <ele>243.83</ele>
        <time>2018-06-18T08:52:34Z</time>
      </trkpt>
      <trkpt lat="44.05776" lon="5.2013">
        <ele>243.35</ele>
        <time>2018-06-18T08:52:50Z</time>
      </trkpt>
      <trkpt lat="44.05774" lon="5.20137">
        <ele>241.91</ele>
        <time>2018-06-18T08:53:06Z</time>
      </trkpt>
      <trkpt lat="44.05773" lon="5.20141">
        <ele>241.43</ele>
        <time>2018-06-18T08:53:11Z</time>
      </trkpt>
      <trkpt lat="44.05765" lon="5.20155">
        <ele>239.99</ele>
        <time>2018-06-18T08:53:28Z</time>
      </trkpt>
      <trkpt lat="44.05759" lon="5.20162">
        <ele>239.02</ele>
        <time>2018-06-18T08:53:42Z</time>
      </trkpt>
      <trkpt lat="44.05754" lon="5.20169">
        <ele>239.02</ele>
        <time>2018-06-18T08:53:58Z</time>
      </trkpt>
      <trkpt lat="44.05752" lon="5.20174">
        <ele>238.54</ele>
        <time>2018-06-18T08:54:12Z</time>
      </trkpt>
      <trkpt lat="44.0575" lon="5.20173">
        <ele>238.06</ele>
        <time>2018-06-18T08:54:24Z</time>
      </trkpt>
      <trkpt lat="44.05743" lon="5.20169">
        <ele>236.14</ele>
        <time>2018-06-18T08:54:38Z</time>
      </trkpt>
      <trkpt lat="44.05737" lon="5.2017">
        <ele>236.62</ele>
        <time>2018-06-18T08:54:52Z</time>
      </trkpt>
      <trkpt lat="44.05729" lon="5.2017">
        <ele>236.14</ele>
        <time>2018-06-18T08:55:04Z</time>
      </trkpt>
      <trkpt lat="44.05721" lon="5.20171">
        <ele>235.18</ele>
        <time>2018-06-18T08:55:18Z</time>
      </trkpt>
      <trkpt lat="44.05712" lon="5.20173">
        <ele>233.26</ele>
        <time>2018-06-18T08:55:32Z</time>
      </trkpt>
      <trkpt lat="44.05697" lon="5.2017">
        <ele>232.78</ele>
        <time>2018-06-18T08:55:47Z</time>
      </trkpt>
      <trkpt lat="44.05684" lon="5.20168">
        <ele>231.81</ele>
        <time>2018-06-18T08:56:02Z</time>
      </trkpt>
      <trkpt lat="44.05676" lon="5.20165">
        <ele>231.33</ele>
        <time>2018-06-18T08:56:16Z</time>
      </trkpt>
      <trkpt lat="44.05667" lon="5.2016">
        <ele>230.85</ele>
        <time>2018-06-18T08:56:29Z</time>
      </trkpt>
      <trkpt lat="44.05652" lon="5.20151">
        <ele>229.89</ele>
        <time>2018-06-18T08:56:45Z</time>
      </trkpt>
      <trkpt lat="44.05639" lon="5.20155">
        <ele>228.93</ele>
        <time>2018-06-18T08:57:00Z</time>
      </trkpt>
      <trkpt lat="44.05629" lon="5.20153">
        <ele>228.93</ele>
        <time>2018-06-18T08:57:14Z</time>
      </trkpt>
      <trkpt lat="44.05614" lon="5.20152">
        <ele>228.45</ele>
        <time>2018-06-18T08:57:29Z</time>
      </trkpt>
      <trkpt lat="44.05604" lon="5.20149">
        <ele>228.45</ele>
        <time>2018-06-18T08:57:42Z</time>
      </trkpt>
      <trkpt lat="44.05594" lon="5.20143">
        <ele>228.45</ele>
        <time>2018-06-18T08:57:54Z</time>
      </trkpt>
      <trkpt lat="44.05586" lon="5.20145">
        <ele>228.45</ele>
        <time>2018-06-18T08:58:05Z</time>
      </trkpt>
      <trkpt lat="44.05577" lon="5.2015">
        <ele>227.97</ele>
        <time>2018-06-18T08:58:19Z</time>
      </trkpt>
      <trkpt lat="44.05573" lon="5.20147">
        <ele>226.05</ele>
        <time>2018-06-18T08:58:33Z</time>
      </trkpt>
      <trkpt lat="44.05572" lon="5.2014">
        <ele>225.57</ele>
        <time>2018-06-18T08:58:47Z</time>
      </trkpt>
      <trkpt lat="44.05573" lon="5.20131">
        <ele>225.57</ele>
        <time>2018-06-18T08:58:59Z</time>
      </trkpt>
      <trkpt lat="44.05571" lon="5.20121">
        <ele>225.57</ele>
        <time>2018-06-18T08:59:15Z</time>
      </trkpt>
      <trkpt lat="44.05567" lon="5.2011">
        <ele>225.57</ele>
        <time>2018-06-18T08:59:27Z</time>
      </trkpt>
      <trkpt lat="44.05568" lon="5.20106">
        <ele>227.01</ele>
        <time>2018-06-18T08:59:33Z</time>
      </trkpt>
      <trkpt lat="44.05569" lon="5.20099">
        <ele>227.49</ele>
        <time>2018-06-18T08:59:48Z</time>
      </trkpt>
      <trkpt lat="44.05568" lon="5.20091">
        <ele>227.49</ele>
        <time>2018-06-18T09:00:02Z</time>
      </trkpt>
      <trkpt lat="44.05567" lon="5.20087">
        <ele>227.97</ele>
        <time>2018-06-18T09:00:17Z</time>
      </trkpt>
      <trkpt lat="44.05568" lon="5.20086">
        <ele>227.97</ele>
        <time>2018-06-18T09:00:36Z</time>
      </trkpt>
      <trkpt lat="44.05569" lon="5.20086">
        <ele>227.97</ele>
        <time>2018-06-18T09:00:54Z</time>
      </trkpt>
      <trkpt lat="44.0557" lon="5.20091">
        <ele>227.97</ele>
        <time>2018-06-18T09:01:12Z</time>
      </trkpt>
      <trkpt lat="44.05573" lon="5.20093">
        <ele>227.97</ele>
        <time>2018-06-18T09:01:32Z</time>
      </trkpt>
      <trkpt lat="44.05569" lon="5.20102">
        <ele>227.97</ele>
        <time>2018-06-18T09:01:46Z</time>
      </trkpt>
      <trkpt lat="44.05569" lon="5.20105">
        <ele>226.53</ele>
        <time>2018-06-18T09:01:52Z</time>
      </trkpt>
      <trkpt lat="44.05569" lon="5.20114">
        <ele>226.05</ele>
        <time>2018-06-18T09:02:05Z</time>
      </trkpt>
      <trkpt lat="44.05574" lon="5.20118">
        <ele>227.49</ele>
        <time>2018-06-18T09:02:17Z</time>
      </trkpt>
      <trkpt lat="44.05574" lon="5.20132">
        <ele>227.49</ele>
        <time>2018-06-18T09:02:31Z</time>
      </trkpt>
      <trkpt lat="44.05569" lon="5.20141">
        <ele>227.49</ele>
        <time>2018-06-18T09:02:43Z</time>
      </trkpt>
      <trkpt lat="44.05566" lon="5.20144">
        <ele>227.49</ele>
        <time>2018-06-18T09:03:10Z</time>
      </trkpt>
      <trkpt lat="44.05556" lon="5.2015">
        <ele>227.49</ele>
        <time>2018-06-18T09:03:23Z</time>
      </trkpt>
      <trkpt lat="44.05545" lon="5.20154">
        <ele>227.97</ele>
        <time>2018-06-18T09:03:37Z</time>
      </trkpt>
      <trkpt lat="44.05537" lon="5.2015">
        <ele>227.97</ele>
        <time>2018-06-18T09:03:50Z</time>
      </trkpt>
      <trkpt lat="44.05529" lon="5.20142">
        <ele>227.97</ele>
        <time>2018-06-18T09:04:04Z</time>
      </trkpt>
      <trkpt lat="44.05516" lon="5.20132">
        <ele>227.97</ele>
        <time>2018-06-18T09:04:21Z</time>
      </trkpt>
      <trkpt lat="44.05509" lon="5.20128">
        <ele>226.53</ele>
        <time>2018-06-18T09:04:32Z</time>
      </trkpt>
      <trkpt lat="44.05506" lon="5.20122">
        <ele>225.57</ele>
        <time>2018-06-18T09:04:39Z</time>
      </trkpt>
      <trkpt lat="44.05504" lon="5.20101">
        <ele>225.09</ele>
        <time>2018-06-18T09:04:55Z</time>
      </trkpt>
      <trkpt lat="44.05501" lon="5.20091">
        <ele>224.61</ele>
        <time>2018-06-18T09:05:08Z</time>
      </trkpt>
      <trkpt lat="44.05493" lon="5.20092">
        <ele>224.61</ele>
        <time>2018-06-18T09:05:23Z</time>
      </trkpt>
      <trkpt lat="44.05491" lon="5.20093">
        <ele>226.05</ele>
        <time>2018-06-18T09:05:25Z</time>
      </trkpt>
      <trkpt lat="44.05486" lon="5.20095">
        <ele>226.53</ele>
        <time>2018-06-18T09:05:34Z</time>
      </trkpt>
      <trkpt lat="44.05482" lon="5.20094">
        <ele>226.53</ele>
        <time>2018-06-18T09:05:38Z</time>
      </trkpt>
      <trkpt lat="44.05467" lon="5.201">
        <ele>226.53</ele>
        <time>2018-06-18T09:05:56Z</time>
      </trkpt>
      <trkpt lat="44.05457" lon="5.20109">
        <ele>226.53</ele>
        <time>2018-06-18T09:06:12Z</time>
      </trkpt>
      <trkpt lat="44.05454" lon="5.20112">
        <ele>226.53</ele>
        <time>2018-06-18T09:06:35Z</time>
      </trkpt>
      <trkpt lat="44.05453" lon="5.20118">
        <ele>227.01</ele>
        <time>2018-06-18T09:06:48Z</time>
      </trkpt>
      <trkpt lat="44.05459" lon="5.20132">
        <ele>227.01</ele>
        <time>2018-06-18T09:07:03Z</time>
      </trkpt>
      <trkpt lat="44.05461" lon="5.20147">
        <ele>227.49</ele>
        <time>2018-06-18T09:07:18Z</time>
      </trkpt>
      <trkpt lat="44.0546" lon="5.20158">
        <ele>227.49</ele>
        <time>2018-06-18T09:07:31Z</time>
      </trkpt>
      <trkpt lat="44.05461" lon="5.20178">
        <ele>227.49</ele>
        <time>2018-06-18T09:07:47Z</time>
      </trkpt>
      <trkpt lat="44.05461" lon="5.20179">
        <ele>227.49</ele>
        <time>2018-06-18T09:07:50Z</time>
      </trkpt>
      <trkpt lat="44.05462" lon="5.20184">
        <ele>227.97</ele>
        <time>2018-06-18T09:07:54Z</time>
      </trkpt>
      <trkpt lat="44.05462" lon="5.20212">
        <ele>228.45</ele>
        <time>2018-06-18T09:08:15Z</time>
      </trkpt>
      <trkpt lat="44.05462" lon="5.20244">
        <ele>228.93</ele>
        <time>2018-06-18T09:08:38Z</time>
      </trkpt>
      <trkpt lat="44.05461" lon="5.20275">
        <ele>229.89</ele>
        <time>2018-06-18T09:09:01Z</time>
      </trkpt>
      <trkpt lat="44.05463" lon="5.20308">
        <ele>230.85</ele>
        <time>2018-06-18T09:09:25Z</time>
      </trkpt>
      <trkpt lat="44.05463" lon="5.20332">
        <ele>230.85</ele>
        <time>2018-06-18T09:09:42Z</time>
      </trkpt>
      <trkpt lat="44.05462" lon="5.20361">
        <ele>231.33</ele>
        <time>2018-06-18T09:10:03Z</time>
      </trkpt>
      <trkpt lat="44.0546" lon="5.20383">
        <ele>231.81</ele>
        <time>2018-06-18T09:10:19Z</time>
      </trkpt>
      <trkpt lat="44.05457" lon="5.20406">
        <ele>231.81</ele>
        <time>2018-06-18T09:10:36Z</time>
      </trkpt>
      <trkpt lat="44.05458" lon="5.20422">
        <ele>231.81</ele>
        <time>2018-06-18T09:10:49Z</time>
      </trkpt>
      <trkpt lat="44.0546" lon="5.20425">
        <ele>231.81</ele>
        <time>2018-06-18T09:10:52Z</time>
      </trkpt>
      <trkpt lat="44.05465" lon="5.20425">
        <ele>231.81</ele>
        <time>2018-06-18T09:10:57Z</time>
      </trkpt>
      <trkpt lat="44.05472" lon="5.20423">
        <ele>232.3</ele>
        <time>2018-06-18T09:11:04Z</time>
      </trkpt>
      <trkpt lat="44.05475" lon="5.20421">
        <ele>232.3</ele>
        <time>2018-06-18T09:11:07Z</time>
      </trkpt>
      <trkpt lat="44.05478" lon="5.20421">
        <ele>232.3</ele>
        <time>2018-06-18T09:11:11Z</time>
      </trkpt>
      <trkpt lat="44.05501" lon="5.20411">
        <ele>232.78</ele>
        <time>2018-06-18T09:11:34Z</time>
      </trkpt>
      <trkpt lat="44.0552" lon="5.20408">
        <ele>233.74</ele>
        <time>2018-06-18T09:11:53Z</time>
      </trkpt>
      <trkpt lat="44.0554" lon="5.20407">
        <ele>234.22</ele>
        <time>2018-06-18T09:12:13Z</time>
      </trkpt>
      <trkpt lat="44.0556" lon="5.20412">
        <ele>234.7</ele>
        <time>2018-06-18T09:12:33Z</time>
      </trkpt>
      <trkpt lat="44.05564" lon="5.20413">
        <ele>234.7</ele>
        <time>2018-06-18T09:12:37Z</time>
      </trkpt>
      <trkpt lat="44.05586" lon="5.20421">
        <ele>235.66</ele>
        <time>2018-06-18T09:12:59Z</time>
      </trkpt>
      <trkpt lat="44.05601" lon="5.20424">
        <ele>237.1</ele>
        <time>2018-06-18T09:13:16Z</time>
      </trkpt>
      <trkpt lat="44.05616" lon="5.20418">
        <ele>237.58</ele>
        <time>2018-06-18T09:13:32Z</time>
      </trkpt>
      <trkpt lat="44.05632" lon="5.2042">
        <ele>237.58</ele>
        <time>2018-06-18T09:13:48Z</time>
      </trkpt>
      <trkpt lat="44.05652" lon="5.20423">
        <ele>238.06</ele>
        <time>2018-06-18T09:14:08Z</time>
      </trkpt>
      <trkpt lat="44.05663" lon="5.20419">
        <ele>238.06</ele>
        <time>2018-06-18T09:14:22Z</time>
      </trkpt>
      <trkpt lat="44.05667" lon="5.20415">
        <ele>238.06</ele>
        <time>2018-06-18T09:14:37Z</time>
      </trkpt>
      <trkpt lat="44.05667" lon="5.20414">
        <ele>238.06</ele>
        <time>2018-06-18T09:15:00Z</time>
      </trkpt>
      <trkpt lat="44.05661" lon="5.2042">
        <ele>238.06</ele>
        <time>2018-06-18T09:15:14Z</time>
      </trkpt>
      <trkpt lat="44.05659" lon="5.20423">
        <ele>238.06</ele>
        <time>2018-06-18T09:15:25Z</time>
      </trkpt>
      <trkpt lat="44.0566" lon="5.20423">
        <ele>236.62</ele>
        <time>2018-06-18T09:15:39Z</time>
      </trkpt>
      <trkpt lat="44.0566" lon="5.20423">
        <ele>238.06</ele>
        <time>2018-06-18T09:15:41Z</time>
      </trkpt>
      <trkpt lat="44.05663" lon="5.20424">
        <ele>238.06</ele>
        <time>2018-06-18T09:15:56Z</time>
      </trkpt>
      <trkpt lat="44.05669" lon="5.20425">
        <ele>238.06</ele>
        <time>2018-06-18T09:16:13Z</time>
      </trkpt>
      <trkpt lat="44.0568" lon="5.20432">
        <ele>239.51</ele>
        <time>2018-06-18T09:16:27Z</time>
      </trkpt>
      <trkpt lat="44.05694" lon="5.20435">
        <ele>240.95</ele>
        <time>2018-06-18T09:16:43Z</time>
      </trkpt>
      <trkpt lat="44.05707" lon="5.20444">
        <ele>241.91</ele>
        <time>2018-06-18T09:17:00Z</time>
      </trkpt>
      <trkpt lat="44.0571" lon="5.20449">
        <ele>242.39</ele>
        <time>2018-06-18T09:17:05Z</time>
      </trkpt>
      <trkpt lat="44.05713" lon="5.20472">
        <ele>243.35</ele>
        <time>2018-06-18T09:17:23Z</time>
      </trkpt>
      <trkpt lat="44.05719" lon="5.20501">
        <ele>244.31</ele>
        <time>2018-06-18T09:17:44Z</time>
      </trkpt>
      <trkpt lat="44.05736" lon="5.20515">
        <ele>245.27</ele>
        <time>2018-06-18T09:18:03Z</time>
      </trkpt>
      <trkpt lat="44.05751" lon="5.20527">
        <ele>245.75</ele>
        <time>2018-06-18T09:18:20Z</time>
      </trkpt>
      <trkpt lat="44.05763" lon="5.20544">
        <ele>247.2</ele>
        <time>2018-06-18T09:18:37Z</time>
      </trkpt>
      <trkpt lat="44.05762" lon="5.20556">
        <ele>249.12</ele>
        <time>2018-06-18T09:18:47Z</time>
      </trkpt>
      <trkpt lat="44.05762" lon="5.20556">
        <ele>245.75</ele>
        <time>2018-06-18T09:18:48Z</time>
      </trkpt>
      <trkpt lat="44.05762" lon="5.20558">
        <ele>250.08</ele>
        <time>2018-06-18T09:18:49Z</time>
      </trkpt>
      <trkpt lat="44.05764" lon="5.2057">
        <ele>249.6</ele>
        <time>2018-06-18T09:18:57Z</time>
      </trkpt>
      <trkpt lat="44.0577" lon="5.20588">
        <ele>249.6</ele>
        <time>2018-06-18T09:19:11Z</time>
      </trkpt>
      <trkpt lat="44.05787" lon="5.20604">
        <ele>249.6</ele>
        <time>2018-06-18T09:19:30Z</time>
      </trkpt>
      <trkpt lat="44.05805" lon="5.20622">
        <ele>250.56</ele>
        <time>2018-06-18T09:19:51Z</time>
      </trkpt>
      <trkpt lat="44.0582" lon="5.20625">
        <ele>251.04</ele>
        <time>2018-06-18T09:20:06Z</time>
      </trkpt>
      <trkpt lat="44.05836" lon="5.20614">
        <ele>252</ele>
        <time>2018-06-18T09:20:25Z</time>
      </trkpt>
      <trkpt lat="44.05835" lon="5.20598">
        <ele>250.08</ele>
        <time>2018-06-18T09:20:40Z</time>
      </trkpt>
      <trkpt lat="44.05837" lon="5.20584">
        <ele>248.16</ele>
        <time>2018-06-18T09:20:54Z</time>
      </trkpt>
      <trkpt lat="44.05839" lon="5.20567">
        <ele>246.72</ele>
        <time>2018-06-18T09:21:08Z</time>
      </trkpt>
      <trkpt lat="44.05842" lon="5.20551">
        <ele>245.75</ele>
        <time>2018-06-18T09:21:22Z</time>
      </trkpt>
      <trkpt lat="44.05849" lon="5.20538">
        <ele>245.75</ele>
        <time>2018-06-18T09:21:38Z</time>
      </trkpt>
      <trkpt lat="44.05849" lon="5.20537">
        <ele>245.75</ele>
        <time>2018-06-18T09:21:59Z</time>
      </trkpt>
      <trkpt lat="44.05855" lon="5.20548">
        <ele>245.75</ele>
        <time>2018-06-18T09:22:13Z</time>
      </trkpt>
      <trkpt lat="44.05864" lon="5.20557">
        <ele>245.75</ele>
        <time>2018-06-18T09:22:26Z</time>
      </trkpt>
      <trkpt lat="44.05873" lon="5.20569">
        <ele>246.72</ele>
        <time>2018-06-18T09:22:40Z</time>
      </trkpt>
      <trkpt lat="44.05878" lon="5.20578">
        <ele>247.68</ele>
        <time>2018-06-18T09:22:54Z</time>
      </trkpt>
      <trkpt lat="44.05888" lon="5.20582">
        <ele>247.68</ele>
        <time>2018-06-18T09:23:18Z</time>
      </trkpt>
      <trkpt lat="44.05898" lon="5.20584">
        <ele>247.68</ele>
        <time>2018-06-18T09:23:45Z</time>
      </trkpt>
      <trkpt lat="44.05907" lon="5.20591">
        <ele>247.68</ele>
        <time>2018-06-18T09:24:07Z</time>
      </trkpt>
      <trkpt lat="44.05922" lon="5.20592">
        <ele>248.16</ele>
        <time>2018-06-18T09:24:26Z</time>
      </trkpt>
      <trkpt lat="44.05933" lon="5.2059">
        <ele>248.64</ele>
        <time>2018-06-18T09:24:42Z</time>
      </trkpt>
      <trkpt lat="44.05935" lon="5.20586">
        <ele>248.64</ele>
        <time>2018-06-18T09:25:03Z</time>
      </trkpt>
      <trkpt lat="44.05941" lon="5.20581">
        <ele>248.16</ele>
        <time>2018-06-18T09:25:26Z</time>
      </trkpt>
      <trkpt lat="44.05949" lon="5.20587">
        <ele>248.64</ele>
        <time>2018-06-18T09:25:50Z</time>
      </trkpt>
      <trkpt lat="44.05968" lon="5.20595">
        <ele>249.6</ele>
        <time>2018-06-18T09:26:04Z</time>
      </trkpt>
      <trkpt lat="44.05978" lon="5.20605">
        <ele>250.08</ele>
        <time>2018-06-18T09:26:22Z</time>
      </trkpt>
      <trkpt lat="44.05979" lon="5.20612">
        <ele>250.08</ele>
        <time>2018-06-18T09:26:43Z</time>
      </trkpt>
      <trkpt lat="44.05993" lon="5.20611">
        <ele>250.56</ele>
        <time>2018-06-18T09:27:00Z</time>
      </trkpt>
      <trkpt lat="44.06006" lon="5.20606">
        <ele>250.56</ele>
        <time>2018-06-18T09:27:18Z</time>
      </trkpt>
      <trkpt lat="44.06019" lon="5.20614">
        <ele>251.04</ele>
        <time>2018-06-18T09:27:34Z</time>
      </trkpt>
      <trkpt lat="44.06034" lon="5.20623">
        <ele>252.48</ele>
        <time>2018-06-18T09:27:51Z</time>
      </trkpt>
      <trkpt lat="44.06043" lon="5.2063">
        <ele>253.44</ele>
        <time>2018-06-18T09:28:05Z</time>
      </trkpt>
      <trkpt lat="44.06051" lon="5.20632">
        <ele>255.37</ele>
        <time>2018-06-18T09:28:21Z</time>
      </trkpt>
      <trkpt lat="44.06062" lon="5.2062">
        <ele>255.85</ele>
        <time>2018-06-18T09:28:38Z</time>
      </trkpt>
      <trkpt lat="44.06068" lon="5.20616">
        <ele>256.33</ele>
        <time>2018-06-18T09:28:50Z</time>
      </trkpt>
      <trkpt lat="44.06084" lon="5.20609">
        <ele>257.29</ele>
        <time>2018-06-18T09:29:07Z</time>
      </trkpt>
      <trkpt lat="44.06082" lon="5.20607">
        <ele>257.77</ele>
        <time>2018-06-18T09:29:32Z</time>
      </trkpt>
      <trkpt lat="44.06081" lon="5.20609">
        <ele>257.77</ele>
        <time>2018-06-18T09:29:49Z</time>
      </trkpt>
      <trkpt lat="44.06078" lon="5.20605">
        <ele>256.81</ele>
        <time>2018-06-18T09:30:14Z</time>
      </trkpt>
      <trkpt lat="44.06079" lon="5.20606">
        <ele>256.81</ele>
        <time>2018-06-18T09:30:38Z</time>
      </trkpt>
      <trkpt lat="44.06076" lon="5.20608">
        <ele>257.29</ele>
        <time>2018-06-18T09:31:07Z</time>
      </trkpt>
      <trkpt lat="44.0607" lon="5.20613">
        <ele>256.81</ele>
        <time>2018-06-18T09:31:24Z</time>
      </trkpt>
      <trkpt lat="44.06065" lon="5.20619">
        <ele>255.37</ele>
        <time>2018-06-18T09:31:39Z</time>
      </trkpt>
      <trkpt lat="44.06064" lon="5.20619">
        <ele>255.37</ele>
        <time>2018-06-18T09:31:43Z</time>
      </trkpt>
      <trkpt lat="44.0605" lon="5.20629">
        <ele>254.89</ele>
        <time>2018-06-18T09:31:56Z</time>
      </trkpt>
      <trkpt lat="44.06041" lon="5.20643">
        <ele>254.41</ele>
        <time>2018-06-18T09:32:09Z</time>
      </trkpt>
      <trkpt lat="44.06031" lon="5.20641">
        <ele>252.48</ele>
        <time>2018-06-18T09:32:23Z</time>
      </trkpt>
      <trkpt lat="44.06021" lon="5.20636">
        <ele>251.04</ele>
        <time>2018-06-18T09:32:38Z</time>
      </trkpt>
      <trkpt lat="44.06009" lon="5.20618">
        <ele>250.08</ele>
        <time>2018-06-18T09:32:53Z</time>
      </trkpt>
      <trkpt lat="44.05997" lon="5.20614">
        <ele>249.6</ele>
        <time>2018-06-18T09:33:06Z</time>
      </trkpt>
      <trkpt lat="44.05984" lon="5.20611">
        <ele>249.12</ele>
        <time>2018-06-18T09:33:22Z</time>
      </trkpt>
      <trkpt lat="44.05971" lon="5.20607">
        <ele>249.12</ele>
        <time>2018-06-18T09:33:37Z</time>
      </trkpt>
      <trkpt lat="44.05955" lon="5.20604">
        <ele>247.68</ele>
        <time>2018-06-18T09:33:53Z</time>
      </trkpt>
      <trkpt lat="44.05946" lon="5.20593">
        <ele>246.72</ele>
        <time>2018-06-18T09:34:08Z</time>
      </trkpt>
      <trkpt lat="44.0594" lon="5.20583">
        <ele>246.23</ele>
        <time>2018-06-18T09:34:21Z</time>
      </trkpt>
      <trkpt lat="44.05932" lon="5.20572">
        <ele>245.75</ele>
        <time>2018-06-18T09:34:38Z</time>
      </trkpt>
      <trkpt lat="44.05924" lon="5.20572">
        <ele>245.75</ele>
        <time>2018-06-18T09:34:54Z</time>
      </trkpt>
      <trkpt lat="44.05913" lon="5.20572">
        <ele>244.79</ele>
        <time>2018-06-18T09:35:10Z</time>
      </trkpt>
      <trkpt lat="44.05903" lon="5.20568">
        <ele>244.31</ele>
        <time>2018-06-18T09:35:26Z</time>
      </trkpt>
      <trkpt lat="44.0589" lon="5.20575">
        <ele>243.83</ele>
        <time>2018-06-18T09:35:45Z</time>
      </trkpt>
      <trkpt lat="44.05874" lon="5.20576">
        <ele>242.87</ele>
        <time>2018-06-18T09:36:00Z</time>
      </trkpt>
      <trkpt lat="44.05867" lon="5.20571">
        <ele>242.39</ele>
        <time>2018-06-18T09:36:07Z</time>
      </trkpt>
      <trkpt lat="44.05857" lon="5.20556">
        <ele>242.39</ele>
        <time>2018-06-18T09:36:21Z</time>
      </trkpt>
      <trkpt lat="44.05849" lon="5.20544">
        <ele>241.43</ele>
        <time>2018-06-18T09:36:35Z</time>
      </trkpt>
      <trkpt lat="44.05845" lon="5.20545">
        <ele>241.43</ele>
        <time>2018-06-18T09:36:51Z</time>
      </trkpt>
      <trkpt lat="44.05843" lon="5.20559">
        <ele>242.39</ele>
        <time>2018-06-18T09:37:05Z</time>
      </trkpt>
      <trkpt lat="44.05839" lon="5.20583">
        <ele>244.31</ele>
        <time>2018-06-18T09:37:22Z</time>
      </trkpt>
      <trkpt lat="44.0584" lon="5.20602">
        <ele>245.75</ele>
        <time>2018-06-18T09:37:35Z</time>
      </trkpt>
      <trkpt lat="44.05837" lon="5.20618">
        <ele>247.2</ele>
        <time>2018-06-18T09:37:50Z</time>
      </trkpt>
      <trkpt lat="44.05837" lon="5.2062">
        <ele>247.2</ele>
        <time>2018-06-18T09:37:52Z</time>
      </trkpt>
      <trkpt lat="44.05843" lon="5.20645">
        <ele>247.2</ele>
        <time>2018-06-18T09:38:11Z</time>
      </trkpt>
      <trkpt lat="44.05843" lon="5.20649">
        <ele>248.16</ele>
        <time>2018-06-18T09:38:13Z</time>
      </trkpt>
      <trkpt lat="44.05845" lon="5.20681">
        <ele>248.64</ele>
        <time>2018-06-18T09:38:34Z</time>
      </trkpt>
      <trkpt lat="44.05845" lon="5.20682">
        <ele>248.64</ele>
        <time>2018-06-18T09:38:35Z</time>
      </trkpt>
      <trkpt lat="44.05842" lon="5.20707">
        <ele>249.12</ele>
        <time>2018-06-18T09:38:53Z</time>
      </trkpt>
      <trkpt lat="44.05837" lon="5.20734">
        <ele>249.6</ele>
        <time>2018-06-18T09:39:11Z</time>
      </trkpt>
      <trkpt lat="44.05834" lon="5.20754">
        <ele>250.08</ele>
        <time>2018-06-18T09:39:28Z</time>
      </trkpt>
      <trkpt lat="44.05835" lon="5.20753">
        <ele>250.08</ele>
        <time>2018-06-18T09:39:34Z</time>
      </trkpt>
      <trkpt lat="44.05834" lon="5.20755">
        <ele>252.48</ele>
        <time>2018-06-18T09:39:36Z</time>
      </trkpt>
      <trkpt lat="44.05831" lon="5.20765">
        <ele>250.08</ele>
        <time>2018-06-18T09:39:46Z</time>
      </trkpt>
      <trkpt lat="44.0583" lon="5.20771">
        <ele>250.08</ele>
        <time>2018-06-18T09:39:50Z</time>
      </trkpt>
      <trkpt lat="44.05826" lon="5.20796">
        <ele>250.56</ele>
        <time>2018-06-18T09:40:07Z</time>
      </trkpt>
      <trkpt lat="44.05823" lon="5.20818">
        <ele>250.56</ele>
        <time>2018-06-18T09:40:25Z</time>
      </trkpt>
      <trkpt lat="44.05821" lon="5.20833">
        <ele>250.56</ele>
        <time>2018-06-18T09:40:39Z</time>
      </trkpt>
      <trkpt lat="44.05819" lon="5.20856">
        <ele>250.56</ele>
        <time>2018-06-18T09:40:55Z</time>
      </trkpt>
      <trkpt lat="44.05818" lon="5.20884">
        <ele>252</ele>
        <time>2018-06-18T09:41:13Z</time>
      </trkpt>
      <trkpt lat="44.05821" lon="5.209">
        <ele>252</ele>
        <time>2018-06-18T09:41:27Z</time>
      </trkpt>
      <trkpt lat="44.05824" lon="5.20916">
        <ele>249.6</ele>
        <time>2018-06-18T09:41:42Z</time>
      </trkpt>
      <trkpt lat="44.05828" lon="5.20932">
        <ele>248.16</ele>
        <time>2018-06-18T09:41:56Z</time>
      </trkpt>
      <trkpt lat="44.05833" lon="5.20948">
        <ele>247.68</ele>
        <time>2018-06-18T09:42:10Z</time>
      </trkpt>
      <trkpt lat="44.05832" lon="5.2097">
        <ele>247.2</ele>
        <time>2018-06-18T09:42:27Z</time>
      </trkpt>
      <trkpt lat="44.05831" lon="5.20989">
        <ele>247.2</ele>
        <time>2018-06-18T09:42:40Z</time>
      </trkpt>
      <trkpt lat="44.0583" lon="5.2101">
        <ele>247.2</ele>
        <time>2018-06-18T09:42:55Z</time>
      </trkpt>
      <trkpt lat="44.05827" lon="5.21031">
        <ele>248.16</ele>
        <time>2018-06-18T09:43:10Z</time>
      </trkpt>
      <trkpt lat="44.05822" lon="5.21053">
        <ele>249.6</ele>
        <time>2018-06-18T09:43:25Z</time>
      </trkpt>
      <trkpt lat="44.0582" lon="5.2107">
        <ele>250.56</ele>
        <time>2018-06-18T09:43:38Z</time>
      </trkpt>
      <trkpt lat="44.05819" lon="5.21087">
        <ele>251.52</ele>
        <time>2018-06-18T09:43:53Z</time>
      </trkpt>
      <trkpt lat="44.05816" lon="5.21104">
        <ele>250.56</ele>
        <time>2018-06-18T09:44:07Z</time>
      </trkpt>
      <trkpt lat="44.05813" lon="5.21119">
        <ele>249.6</ele>
        <time>2018-06-18T09:44:23Z</time>
      </trkpt>
      <trkpt lat="44.05809" lon="5.21135">
        <ele>248.64</ele>
        <time>2018-06-18T09:44:37Z</time>
      </trkpt>
      <trkpt lat="44.05808" lon="5.21157">
        <ele>247.68</ele>
        <time>2018-06-18T09:44:52Z</time>
      </trkpt>
      <trkpt lat="44.05813" lon="5.21174">
        <ele>247.2</ele>
        <time>2018-06-18T09:45:05Z</time>
      </trkpt>
      <trkpt lat="44.05815" lon="5.21192">
        <ele>247.2</ele>
        <time>2018-06-18T09:45:18Z</time>
      </trkpt>
      <trkpt lat="44.05815" lon="5.21217">
        <ele>246.72</ele>
        <time>2018-06-18T09:45:33Z</time>
      </trkpt>
      <trkpt lat="44.0582" lon="5.21236">
        <ele>246.72</ele>
        <time>2018-06-18T09:45:47Z</time>
      </trkpt>
      <trkpt lat="44.05828" lon="5.21251">
        <ele>248.16</ele>
        <time>2018-06-18T09:46:01Z</time>
      </trkpt>
      <trkpt lat="44.05833" lon="5.21268">
        <ele>249.6</ele>
        <time>2018-06-18T09:46:15Z</time>
      </trkpt>
      <trkpt lat="44.05834" lon="5.21283">
        <ele>249.6</ele>
        <time>2018-06-18T09:46:28Z</time>
      </trkpt>
      <trkpt lat="44.05832" lon="5.213">
        <ele>250.56</ele>
        <time>2018-06-18T09:46:41Z</time>
      </trkpt>
      <trkpt lat="44.0583" lon="5.21313">
        <ele>251.52</ele>
        <time>2018-06-18T09:46:54Z</time>
      </trkpt>
      <trkpt lat="44.05833" lon="5.21338">
        <ele>252.48</ele>
        <time>2018-06-18T09:47:10Z</time>
      </trkpt>
      <trkpt lat="44.05837" lon="5.21354">
        <ele>254.41</ele>
        <time>2018-06-18T09:47:25Z</time>
      </trkpt>
      <trkpt lat="44.05839" lon="5.21367">
        <ele>256.33</ele>
        <time>2018-06-18T09:47:40Z</time>
      </trkpt>
      <trkpt lat="44.05844" lon="5.21381">
        <ele>257.77</ele>
        <time>2018-06-18T09:47:56Z</time>
      </trkpt>
      <trkpt lat="44.0585" lon="5.21393">
        <ele>259.69</ele>
        <time>2018-06-18T09:48:11Z</time>
      </trkpt>
      <trkpt lat="44.05854" lon="5.21405">
        <ele>261.62</ele>
        <time>2018-06-18T09:48:26Z</time>
      </trkpt>
      <trkpt lat="44.05858" lon="5.21407">
        <ele>262.58</ele>
        <time>2018-06-18T09:48:46Z</time>
      </trkpt>
      <trkpt lat="44.05865" lon="5.21397">
        <ele>260.65</ele>
        <time>2018-06-18T09:49:00Z</time>
      </trkpt>
      <trkpt lat="44.05873" lon="5.21391">
        <ele>260.17</ele>
        <time>2018-06-18T09:49:15Z</time>
      </trkpt>
      <trkpt lat="44.05878" lon="5.21395">
        <ele>260.17</ele>
        <time>2018-06-18T09:49:28Z</time>
      </trkpt>
      <trkpt lat="44.05884" lon="5.21402">
        <ele>258.25</ele>
        <time>2018-06-18T09:49:42Z</time>
      </trkpt>
      <trkpt lat="44.05892" lon="5.21409">
        <ele>256.81</ele>
        <time>2018-06-18T09:49:59Z</time>
      </trkpt>
      <trkpt lat="44.05896" lon="5.21412">
        <ele>254.89</ele>
        <time>2018-06-18T09:50:13Z</time>
      </trkpt>
      <trkpt lat="44.05901" lon="5.21404">
        <ele>253.93</ele>
        <time>2018-06-18T09:50:27Z</time>
      </trkpt>
      <trkpt lat="44.05904" lon="5.21391">
        <ele>253.44</ele>
        <time>2018-06-18T09:50:42Z</time>
      </trkpt>
      <trkpt lat="44.059" lon="5.21377">
        <ele>254.41</ele>
        <time>2018-06-18T09:50:59Z</time>
      </trkpt>
      <trkpt lat="44.05901" lon="5.21361">
        <ele>254.41</ele>
        <time>2018-06-18T09:51:14Z</time>
      </trkpt>
      <trkpt lat="44.05899" lon="5.21351">
        <ele>253.93</ele>
        <time>2018-06-18T09:51:25Z</time>
      </trkpt>
      <trkpt lat="44.05901" lon="5.21358">
        <ele>253.93</ele>
        <time>2018-06-18T09:51:39Z</time>
      </trkpt>
      <trkpt lat="44.05903" lon="5.21366">
        <ele>253.44</ele>
        <time>2018-06-18T09:51:55Z</time>
      </trkpt>
      <trkpt lat="44.05902" lon="5.21376">
        <ele>252.48</ele>
        <time>2018-06-18T09:52:07Z</time>
      </trkpt>
      <trkpt lat="44.05899" lon="5.21388">
        <ele>252</ele>
        <time>2018-06-18T09:52:19Z</time>
      </trkpt>
      <trkpt lat="44.05896" lon="5.21401">
        <ele>252.96</ele>
        <time>2018-06-18T09:52:32Z</time>
      </trkpt>
      <trkpt lat="44.05894" lon="5.2142">
        <ele>252.96</ele>
        <time>2018-06-18T09:52:52Z</time>
      </trkpt>
      <trkpt lat="44.05889" lon="5.2143">
        <ele>253.93</ele>
        <time>2018-06-18T09:53:06Z</time>
      </trkpt>
      <trkpt lat="44.05887" lon="5.21441">
        <ele>253.93</ele>
        <time>2018-06-18T09:53:29Z</time>
      </trkpt>
      <trkpt lat="44.05894" lon="5.21442">
        <ele>253.93</ele>
        <time>2018-06-18T09:54:05Z</time>
      </trkpt>
      <trkpt lat="44.05896" lon="5.21442">
        <ele>253.93</ele>
        <time>2018-06-18T09:54:27Z</time>
      </trkpt>
      <trkpt lat="44.05886" lon="5.2145">
        <ele>254.89</ele>
        <time>2018-06-18T09:54:42Z</time>
      </trkpt>
      <trkpt lat="44.05879" lon="5.2146">
        <ele>255.37</ele>
        <time>2018-06-18T09:54:54Z</time>
      </trkpt>
      <trkpt lat="44.05878" lon="5.21476">
        <ele>255.37</ele>
        <time>2018-06-18T09:55:07Z</time>
      </trkpt>
      <trkpt lat="44.05881" lon="5.21484">
        <ele>255.85</ele>
        <time>2018-06-18T09:55:20Z</time>
      </trkpt>
      <trkpt lat="44.05878" lon="5.21487">
        <ele>254.41</ele>
        <time>2018-06-18T09:55:35Z</time>
      </trkpt>
      <trkpt lat="44.05878" lon="5.21485">
        <ele>258.25</ele>
        <time>2018-06-18T09:55:37Z</time>
      </trkpt>
      <trkpt lat="44.05869" lon="5.21486">
        <ele>256.81</ele>
        <time>2018-06-18T09:55:51Z</time>
      </trkpt>
      <trkpt lat="44.05864" lon="5.21498">
        <ele>259.21</ele>
        <time>2018-06-18T09:56:07Z</time>
      </trkpt>
      <trkpt lat="44.05862" lon="5.21507">
        <ele>261.14</ele>
        <time>2018-06-18T09:56:22Z</time>
      </trkpt>
      <trkpt lat="44.05854" lon="5.21514">
        <ele>262.58</ele>
        <time>2018-06-18T09:56:37Z</time>
      </trkpt>
      <trkpt lat="44.05848" lon="5.21528">
        <ele>264.02</ele>
        <time>2018-06-18T09:56:52Z</time>
      </trkpt>
      <trkpt lat="44.05846" lon="5.21541">
        <ele>264.98</ele>
        <time>2018-06-18T09:57:06Z</time>
      </trkpt>
      <trkpt lat="44.05851" lon="5.21549">
        <ele>265.94</ele>
        <time>2018-06-18T09:57:19Z</time>
      </trkpt>
      <trkpt lat="44.05855" lon="5.21556">
        <ele>267.38</ele>
        <time>2018-06-18T09:57:30Z</time>
      </trkpt>
      <trkpt lat="44.05855" lon="5.2156">
        <ele>266.42</ele>
        <time>2018-06-18T09:57:47Z</time>
      </trkpt>
      <trkpt lat="44.05855" lon="5.21561">
        <ele>266.42</ele>
        <time>2018-06-18T09:58:03Z</time>
      </trkpt>
      <trkpt lat="44.05856" lon="5.2157">
        <ele>266.42</ele>
        <time>2018-06-18T09:58:26Z</time>
      </trkpt>
      <trkpt lat="44.05856" lon="5.2157">
        <ele>263.06</ele>
        <time>2018-06-18T09:58:28Z</time>
      </trkpt>
      <trkpt lat="44.05856" lon="5.2157">
        <ele>268.35</ele>
        <time>2018-06-18T09:58:29Z</time>
      </trkpt>
      <trkpt lat="44.05856" lon="5.2157">
        <ele>265.94</ele>
        <time>2018-06-18T09:58:47Z</time>
      </trkpt>
      <trkpt lat="44.05869" lon="5.21563">
        <ele>265.94</ele>
        <time>2018-06-18T09:59:06Z</time>
      </trkpt>
      <trkpt lat="44.05871" lon="5.2156">
        <ele>266.42</ele>
        <time>2018-06-18T09:59:22Z</time>
      </trkpt>
      <trkpt lat="44.05869" lon="5.2156">
        <ele>267.38</ele>
        <time>2018-06-18T09:59:40Z</time>
      </trkpt>
      <trkpt lat="44.0587" lon="5.21561">
        <ele>266.42</ele>
        <time>2018-06-18T09:59:51Z</time>
      </trkpt>
      <trkpt lat="44.05873" lon="5.2156">
        <ele>267.38</ele>
        <time>2018-06-18T10:00:08Z</time>
      </trkpt>
      <trkpt lat="44.05873" lon="5.2156">
        <ele>266.42</ele>
        <time>2018-06-18T10:00:22Z</time>
      </trkpt>
      <trkpt lat="44.05868" lon="5.21564">
        <ele>266.9</ele>
        <time>2018-06-18T10:00:51Z</time>
      </trkpt>
      <trkpt lat="44.05872" lon="5.21566">
        <ele>266.9</ele>
        <time>2018-06-18T10:01:24Z</time>
      </trkpt>
      <trkpt lat="44.05874" lon="5.21566">
        <ele>266.9</ele>
        <time>2018-06-18T10:01:56Z</time>
      </trkpt>
      <trkpt lat="44.05878" lon="5.21567">
        <ele>266.9</ele>
        <time>2018-06-18T10:02:30Z</time>
      </trkpt>
      <trkpt lat="44.05873" lon="5.21569">
        <ele>267.38</ele>
        <time>2018-06-18T10:03:08Z</time>
      </trkpt>
      <trkpt lat="44.0587" lon="5.21564">
        <ele>267.38</ele>
        <time>2018-06-18T10:03:50Z</time>
      </trkpt>
      <trkpt lat="44.05872" lon="5.21564">
        <ele>267.38</ele>
        <time>2018-06-18T10:04:25Z</time>
      </trkpt>
      <trkpt lat="44.0587" lon="5.2156">
        <ele>267.86</ele>
        <time>2018-06-18T10:05:04Z</time>
      </trkpt>
      <trkpt lat="44.05872" lon="5.21559">
        <ele>267.86</ele>
        <time>2018-06-18T10:05:43Z</time>
      </trkpt>
      <trkpt lat="44.05871" lon="5.21561">
        <ele>267.86</ele>
        <time>2018-06-18T10:06:07Z</time>
      </trkpt>
      <trkpt lat="44.05872" lon="5.21557">
        <ele>268.35</ele>
        <time>2018-06-18T10:06:44Z</time>
      </trkpt>
      <trkpt lat="44.05868" lon="5.21561">
        <ele>268.35</ele>
        <time>2018-06-18T10:07:16Z</time>
      </trkpt>
      <trkpt lat="44.05871" lon="5.21564">
        <ele>268.83</ele>
        <time>2018-06-18T10:07:50Z</time>
      </trkpt>
      <trkpt lat="44.05871" lon="5.21564">
        <ele>268.83</ele>
        <time>2018-06-18T10:08:22Z</time>
      </trkpt>
      <trkpt lat="44.0587" lon="5.21559">
        <ele>268.83</ele>
        <time>2018-06-18T10:09:01Z</time>
      </trkpt>
      <trkpt lat="44.05873" lon="5.21563">
        <ele>268.83</ele>
        <time>2018-06-18T10:09:41Z</time>
      </trkpt>
      <trkpt lat="44.05872" lon="5.21561">
        <ele>268.83</ele>
        <time>2018-06-18T10:10:18Z</time>
      </trkpt>
      <trkpt lat="44.05865" lon="5.21565">
        <ele>268.83</ele>
        <time>2018-06-18T10:10:50Z</time>
      </trkpt>
      <trkpt lat="44.05871" lon="5.21568">
        <ele>268.83</ele>
        <time>2018-06-18T10:11:33Z</time>
      </trkpt>
      <trkpt lat="44.05874" lon="5.21567">
        <ele>268.83</ele>
        <time>2018-06-18T10:12:05Z</time>
      </trkpt>
      <trkpt lat="44.05875" lon="5.21563">
        <ele>268.83</ele>
        <time>2018-06-18T10:12:45Z</time>
      </trkpt>
      <trkpt lat="44.05875" lon="5.21561">
        <ele>268.83</ele>
        <time>2018-06-18T10:13:27Z</time>
      </trkpt>
      <trkpt lat="44.05876" lon="5.2156">
        <ele>268.83</ele>
        <time>2018-06-18T10:14:05Z</time>
      </trkpt>
      <trkpt lat="44.05874" lon="5.21568">
        <ele>268.83</ele>
        <time>2018-06-18T10:14:41Z</time>
      </trkpt>
      <trkpt lat="44.05873" lon="5.21568">
        <ele>268.83</ele>
        <time>2018-06-18T10:15:18Z</time>
      </trkpt>
      <trkpt lat="44.0587" lon="5.21567">
        <ele>268.83</ele>
        <time>2018-06-18T10:16:02Z</time>
      </trkpt>
      <trkpt lat="44.05869" lon="5.21564">
        <ele>268.83</ele>
        <time>2018-06-18T10:16:38Z</time>
      </trkpt>
      <trkpt lat="44.05874" lon="5.21569">
        <ele>268.83</ele>
        <time>2018-06-18T10:17:14Z</time>
      </trkpt>
      <trkpt lat="44.05876" lon="5.21569">
        <ele>268.83</ele>
        <time>2018-06-18T10:17:55Z</time>
      </trkpt>
      <trkpt lat="44.05878" lon="5.21568">
        <ele>268.83</ele>
        <time>2018-06-18T10:18:31Z</time>
      </trkpt>
      <trkpt lat="44.05877" lon="5.21562">
        <ele>268.83</ele>
        <time>2018-06-18T10:19:09Z</time>
      </trkpt>
      <trkpt lat="44.05872" lon="5.21561">
        <ele>268.83</ele>
        <time>2018-06-18T10:19:38Z</time>
      </trkpt>
      <trkpt lat="44.05871" lon="5.21562">
        <ele>268.83</ele>
        <time>2018-06-18T10:20:18Z</time>
      </trkpt>
      <trkpt lat="44.05876" lon="5.21563">
        <ele>268.83</ele>
        <time>2018-06-18T10:21:02Z</time>
      </trkpt>
      <trkpt lat="44.05876" lon="5.2156">
        <ele>270.27</ele>
        <time>2018-06-18T10:21:42Z</time>
      </trkpt>
      <trkpt lat="44.05872" lon="5.21558">
        <ele>270.75</ele>
        <time>2018-06-18T10:22:14Z</time>
      </trkpt>
      <trkpt lat="44.05873" lon="5.21556">
        <ele>270.75</ele>
        <time>2018-06-18T10:22:44Z</time>
      </trkpt>
      <trkpt lat="44.05874" lon="5.21556">
        <ele>270.75</ele>
        <time>2018-06-18T10:23:22Z</time>
      </trkpt>
      <trkpt lat="44.05875" lon="5.21552">
        <ele>270.75</ele>
        <time>2018-06-18T10:23:59Z</time>
      </trkpt>
      <trkpt lat="44.05876" lon="5.21554">
        <ele>270.75</ele>
        <time>2018-06-18T10:24:36Z</time>
      </trkpt>
      <trkpt lat="44.05878" lon="5.21557">
        <ele>270.75</ele>
        <time>2018-06-18T10:25:13Z</time>
      </trkpt>
      <trkpt lat="44.0588" lon="5.21559">
        <ele>270.75</ele>
        <time>2018-06-18T10:25:50Z</time>
      </trkpt>
      <trkpt lat="44.05881" lon="5.21557">
        <ele>270.75</ele>
        <time>2018-06-18T10:26:18Z</time>
      </trkpt>
      <trkpt lat="44.05881" lon="5.21564">
        <ele>270.75</ele>
        <time>2018-06-18T10:26:59Z</time>
      </trkpt>
      <trkpt lat="44.05882" lon="5.21559">
        <ele>270.75</ele>
        <time>2018-06-18T10:27:38Z</time>
      </trkpt>
      <trkpt lat="44.05876" lon="5.21561">
        <ele>270.75</ele>
        <time>2018-06-18T10:28:17Z</time>
      </trkpt>
      <trkpt lat="44.05877" lon="5.21558">
        <ele>270.75</ele>
        <time>2018-06-18T10:28:55Z</time>
      </trkpt>
      <trkpt lat="44.05874" lon="5.21559">
        <ele>270.75</ele>
        <time>2018-06-18T10:29:37Z</time>
      </trkpt>
      <trkpt lat="44.05875" lon="5.2156">
        <ele>271.23</ele>
        <time>2018-06-18T10:30:15Z</time>
      </trkpt>
      <trkpt lat="44.05872" lon="5.21557">
        <ele>271.23</ele>
        <time>2018-06-18T10:30:43Z</time>
      </trkpt>
      <trkpt lat="44.05871" lon="5.21556">
        <ele>270.75</ele>
        <time>2018-06-18T10:31:07Z</time>
      </trkpt>
      <trkpt lat="44.05871" lon="5.21559">
        <ele>270.75</ele>
        <time>2018-06-18T10:31:25Z</time>
      </trkpt>
      <trkpt lat="44.05869" lon="5.21565">
        <ele>270.75</ele>
        <time>2018-06-18T10:31:50Z</time>
      </trkpt>
      <trkpt lat="44.05867" lon="5.21567">
        <ele>270.75</ele>
        <time>2018-06-18T10:32:22Z</time>
      </trkpt>
      <trkpt lat="44.05869" lon="5.21563">
        <ele>271.71</ele>
        <time>2018-06-18T10:32:36Z</time>
      </trkpt>
      <trkpt lat="44.05872" lon="5.21564">
        <ele>271.71</ele>
        <time>2018-06-18T10:32:54Z</time>
      </trkpt>
      <trkpt lat="44.05871" lon="5.21564">
        <ele>271.23</ele>
        <time>2018-06-18T10:33:01Z</time>
      </trkpt>
      <trkpt lat="44.05872" lon="5.21563">
        <ele>272.19</ele>
        <time>2018-06-18T10:33:12Z</time>
      </trkpt>
      <trkpt lat="44.05874" lon="5.21563">
        <ele>272.19</ele>
        <time>2018-06-18T10:33:29Z</time>
      </trkpt>
      <trkpt lat="44.05875" lon="5.21563">
        <ele>267.86</ele>
        <time>2018-06-18T10:33:36Z</time>
      </trkpt>
      <trkpt lat="44.05875" lon="5.21563">
        <ele>274.11</ele>
        <time>2018-06-18T10:33:37Z</time>
      </trkpt>
      <trkpt lat="44.05874" lon="5.21565">
        <ele>271.23</ele>
        <time>2018-06-18T10:33:40Z</time>
      </trkpt>
      <trkpt lat="44.05876" lon="5.21562">
        <ele>271.23</ele>
        <time>2018-06-18T10:34:02Z</time>
      </trkpt>
      <trkpt lat="44.05873" lon="5.21563">
        <ele>271.23</ele>
        <time>2018-06-18T10:34:22Z</time>
      </trkpt>
      <trkpt lat="44.05875" lon="5.21564">
        <ele>271.23</ele>
        <time>2018-06-18T10:34:41Z</time>
      </trkpt>
      <trkpt lat="44.05875" lon="5.21561">
        <ele>271.23</ele>
        <time>2018-06-18T10:35:04Z</time>
      </trkpt>
      <trkpt lat="44.05873" lon="5.21561">
        <ele>271.23</ele>
        <time>2018-06-18T10:35:19Z</time>
      </trkpt>
      <trkpt lat="44.05875" lon="5.21561">
        <ele>266.42</ele>
        <time>2018-06-18T10:35:22Z</time>
      </trkpt>
      <trkpt lat="44.05875" lon="5.21561">
        <ele>273.63</ele>
        <time>2018-06-18T10:35:23Z</time>
      </trkpt>
      <trkpt lat="44.05874" lon="5.21561">
        <ele>271.71</ele>
        <time>2018-06-18T10:35:26Z</time>
      </trkpt>
      <trkpt lat="44.05874" lon="5.21562">
        <ele>271.23</ele>
        <time>2018-06-18T10:35:49Z</time>
      </trkpt>
      <trkpt lat="44.05875" lon="5.21562">
        <ele>271.23</ele>
        <time>2018-06-18T10:35:58Z</time>
      </trkpt>
      <trkpt lat="44.05877" lon="5.21564">
        <ele>278.44</ele>
        <time>2018-06-18T10:36:00Z</time>
      </trkpt>
      <trkpt lat="44.05876" lon="5.21563">
        <ele>271.71</ele>
        <time>2018-06-18T10:36:01Z</time>
      </trkpt>
      <trkpt lat="44.05874" lon="5.21562">
        <ele>267.86</ele>
        <time>2018-06-18T10:36:13Z</time>
      </trkpt>
      <trkpt lat="44.05873" lon="5.21562">
        <ele>276.52</ele>
        <time>2018-06-18T10:36:14Z</time>
      </trkpt>
      <trkpt lat="44.05873" lon="5.21562">
        <ele>271.71</ele>
        <time>2018-06-18T10:36:15Z</time>
      </trkpt>
      <trkpt lat="44.05873" lon="5.21561">
        <ele>267.38</ele>
        <time>2018-06-18T10:36:22Z</time>
      </trkpt>
      <trkpt lat="44.05873" lon="5.21561">
        <ele>275.07</ele>
        <time>2018-06-18T10:36:23Z</time>
      </trkpt>
      <trkpt lat="44.05873" lon="5.2156">
        <ele>271.23</ele>
        <time>2018-06-18T10:36:24Z</time>
      </trkpt>
      <trkpt lat="44.05872" lon="5.21563">
        <ele>271.71</ele>
        <time>2018-06-18T10:36:29Z</time>
      </trkpt>
      <trkpt lat="44.05872" lon="5.21562">
        <ele>271.23</ele>
        <time>2018-06-18T10:36:52Z</time>
      </trkpt>
      <trkpt lat="44.05875" lon="5.21562">
        <ele>272.19</ele>
        <time>2018-06-18T10:37:16Z</time>
      </trkpt>
      <trkpt lat="44.05878" lon="5.21562">
        <ele>271.71</ele>
        <time>2018-06-18T10:37:49Z</time>
      </trkpt>
      <trkpt lat="44.05877" lon="5.21563">
        <ele>275.07</ele>
        <time>2018-06-18T10:37:55Z</time>
      </trkpt>
      <trkpt lat="44.05876" lon="5.21564">
        <ele>271.71</ele>
        <time>2018-06-18T10:37:56Z</time>
      </trkpt>
      <trkpt lat="44.05874" lon="5.21566">
        <ele>272.67</ele>
        <time>2018-06-18T10:38:12Z</time>
      </trkpt>
      <trkpt lat="44.05871" lon="5.21565">
        <ele>272.67</ele>
        <time>2018-06-18T10:38:32Z</time>
      </trkpt>
      <trkpt lat="44.0587" lon="5.21561">
        <ele>272.67</ele>
        <time>2018-06-18T10:38:46Z</time>
      </trkpt>
      <trkpt lat="44.0587" lon="5.21563">
        <ele>272.67</ele>
        <time>2018-06-18T10:39:04Z</time>
      </trkpt>
      <trkpt lat="44.0587" lon="5.21564">
        <ele>271.23</ele>
        <time>2018-06-18T10:39:11Z</time>
      </trkpt>
      <trkpt lat="44.0587" lon="5.21564">
        <ele>267.86</ele>
        <time>2018-06-18T10:39:12Z</time>
      </trkpt>
      <trkpt lat="44.05871" lon="5.21563">
        <ele>277</ele>
        <time>2018-06-18T10:39:13Z</time>
      </trkpt>
      <trkpt lat="44.05871" lon="5.21564">
        <ele>272.19</ele>
        <time>2018-06-18T10:39:14Z</time>
      </trkpt>
      <trkpt lat="44.05867" lon="5.21568">
        <ele>271.71</ele>
        <time>2018-06-18T10:39:36Z</time>
      </trkpt>
      <trkpt lat="44.05868" lon="5.21568">
        <ele>271.71</ele>
        <time>2018-06-18T10:39:57Z</time>
      </trkpt>
      <trkpt lat="44.05871" lon="5.21565">
        <ele>271.71</ele>
        <time>2018-06-18T10:40:23Z</time>
      </trkpt>
      <trkpt lat="44.05869" lon="5.21566">
        <ele>272.19</ele>
        <time>2018-06-18T10:40:42Z</time>
      </trkpt>
      <trkpt lat="44.0587" lon="5.21565">
        <ele>272.19</ele>
        <time>2018-06-18T10:41:05Z</time>
      </trkpt>
      <trkpt lat="44.05877" lon="5.21559">
        <ele>272.19</ele>
        <time>2018-06-18T10:41:40Z</time>
      </trkpt>
      <trkpt lat="44.05878" lon="5.21562">
        <ele>272.19</ele>
        <time>2018-06-18T10:42:11Z</time>
      </trkpt>
      <trkpt lat="44.05877" lon="5.21563">
        <ele>272.19</ele>
        <time>2018-06-18T10:42:42Z</time>
      </trkpt>
      <trkpt lat="44.05882" lon="5.21561">
        <ele>272.19</ele>
        <time>2018-06-18T10:43:12Z</time>
      </trkpt>
      <trkpt lat="44.05877" lon="5.21565">
        <ele>272.19</ele>
        <time>2018-06-18T10:43:33Z</time>
      </trkpt>
      <trkpt lat="44.05876" lon="5.21566">
        <ele>272.19</ele>
        <time>2018-06-18T10:43:58Z</time>
      </trkpt>
      <trkpt lat="44.05876" lon="5.21562">
        <ele>272.67</ele>
        <time>2018-06-18T10:44:24Z</time>
      </trkpt>
      <trkpt lat="44.05878" lon="5.21562">
        <ele>272.67</ele>
        <time>2018-06-18T10:44:58Z</time>
      </trkpt>
      <trkpt lat="44.05877" lon="5.21563">
        <ele>272.67</ele>
        <time>2018-06-18T10:45:20Z</time>
      </trkpt>
      <trkpt lat="44.05877" lon="5.21563">
        <ele>272.67</ele>
        <time>2018-06-18T10:45:44Z</time>
      </trkpt>
      <trkpt lat="44.0588" lon="5.21545">
        <ele>272.19</ele>
        <time>2018-06-18T10:46:02Z</time>
      </trkpt>
      <trkpt lat="44.05887" lon="5.21526">
        <ele>271.71</ele>
        <time>2018-06-18T10:46:20Z</time>
      </trkpt>
      <trkpt lat="44.05898" lon="5.21525">
        <ele>271.71</ele>
        <time>2018-06-18T10:46:35Z</time>
      </trkpt>
      <trkpt lat="44.05903" lon="5.21528">
        <ele>271.71</ele>
        <time>2018-06-18T10:46:48Z</time>
      </trkpt>
      <trkpt lat="44.05904" lon="5.21528">
        <ele>270.75</ele>
        <time>2018-06-18T10:46:54Z</time>
      </trkpt>
      <trkpt lat="44.05906" lon="5.2153">
        <ele>277</ele>
        <time>2018-06-18T10:46:56Z</time>
      </trkpt>
      <trkpt lat="44.05907" lon="5.2153">
        <ele>271.71</ele>
        <time>2018-06-18T10:46:57Z</time>
      </trkpt>
      <trkpt lat="44.05923" lon="5.21537">
        <ele>271.71</ele>
        <time>2018-06-18T10:47:13Z</time>
      </trkpt>
      <trkpt lat="44.05938" lon="5.21535">
        <ele>271.71</ele>
        <time>2018-06-18T10:47:31Z</time>
      </trkpt>
      <trkpt lat="44.05949" lon="5.21528">
        <ele>271.71</ele>
        <time>2018-06-18T10:47:46Z</time>
      </trkpt>
      <trkpt lat="44.05949" lon="5.21526">
        <ele>271.71</ele>
        <time>2018-06-18T10:47:56Z</time>
      </trkpt>
      <trkpt lat="44.0595" lon="5.2151">
        <ele>272.19</ele>
        <time>2018-06-18T10:48:11Z</time>
      </trkpt>
      <trkpt lat="44.05942" lon="5.21496">
        <ele>274.11</ele>
        <time>2018-06-18T10:48:25Z</time>
      </trkpt>
      <trkpt lat="44.05936" lon="5.21479">
        <ele>275.56</ele>
        <time>2018-06-18T10:48:41Z</time>
      </trkpt>
      <trkpt lat="44.05948" lon="5.21485">
        <ele>276.04</ele>
        <time>2018-06-18T10:48:56Z</time>
      </trkpt>
      <trkpt lat="44.05966" lon="5.21495">
        <ele>276.52</ele>
        <time>2018-06-18T10:49:14Z</time>
      </trkpt>
      <trkpt lat="44.05983" lon="5.21503">
        <ele>277.48</ele>
        <time>2018-06-18T10:49:30Z</time>
      </trkpt>
      <trkpt lat="44.05991" lon="5.21511">
        <ele>278.44</ele>
        <time>2018-06-18T10:49:46Z</time>
      </trkpt>
      <trkpt lat="44.05996" lon="5.21512">
        <ele>278.44</ele>
        <time>2018-06-18T10:50:07Z</time>
      </trkpt>
      <trkpt lat="44.06014" lon="5.2151">
        <ele>280.36</ele>
        <time>2018-06-18T10:50:24Z</time>
      </trkpt>
      <trkpt lat="44.06025" lon="5.2151">
        <ele>281.32</ele>
        <time>2018-06-18T10:50:40Z</time>
      </trkpt>
      <trkpt lat="44.06038" lon="5.21508">
        <ele>282.28</ele>
        <time>2018-06-18T10:50:55Z</time>
      </trkpt>
      <trkpt lat="44.06049" lon="5.2151">
        <ele>282.77</ele>
        <time>2018-06-18T10:51:08Z</time>
      </trkpt>
      <trkpt lat="44.06061" lon="5.21519">
        <ele>284.21</ele>
        <time>2018-06-18T10:51:23Z</time>
      </trkpt>
      <trkpt lat="44.06071" lon="5.21528">
        <ele>285.17</ele>
        <time>2018-06-18T10:51:38Z</time>
      </trkpt>
      <trkpt lat="44.06085" lon="5.21533">
        <ele>287.57</ele>
        <time>2018-06-18T10:51:55Z</time>
      </trkpt>
      <trkpt lat="44.06087" lon="5.21535">
        <ele>287.57</ele>
        <time>2018-06-18T10:51:58Z</time>
      </trkpt>
      <trkpt lat="44.06088" lon="5.21531">
        <ele>285.17</ele>
        <time>2018-06-18T10:52:02Z</time>
      </trkpt>
      <trkpt lat="44.06099" lon="5.21534">
        <ele>286.61</ele>
        <time>2018-06-18T10:52:16Z</time>
      </trkpt>
      <trkpt lat="44.06115" lon="5.21529">
        <ele>288.53</ele>
        <time>2018-06-18T10:52:34Z</time>
      </trkpt>
      <trkpt lat="44.06112" lon="5.21536">
        <ele>288.53</ele>
        <time>2018-06-18T10:52:52Z</time>
      </trkpt>
      <trkpt lat="44.06113" lon="5.21553">
        <ele>288.53</ele>
        <time>2018-06-18T10:53:08Z</time>
      </trkpt>
      <trkpt lat="44.06113" lon="5.21565">
        <ele>288.53</ele>
        <time>2018-06-18T10:53:22Z</time>
      </trkpt>
      <trkpt lat="44.06109" lon="5.21572">
        <ele>288.05</ele>
        <time>2018-06-18T10:53:36Z</time>
      </trkpt>
      <trkpt lat="44.06101" lon="5.21571">
        <ele>287.09</ele>
        <time>2018-06-18T10:53:57Z</time>
      </trkpt>
      <trkpt lat="44.06093" lon="5.21572">
        <ele>286.61</ele>
        <time>2018-06-18T10:54:14Z</time>
      </trkpt>
      <trkpt lat="44.06094" lon="5.21569">
        <ele>286.61</ele>
        <time>2018-06-18T10:54:29Z</time>
      </trkpt>
      <trkpt lat="44.06093" lon="5.21574">
        <ele>285.17</ele>
        <time>2018-06-18T10:54:47Z</time>
      </trkpt>
      <trkpt lat="44.0609" lon="5.21582">
        <ele>284.69</ele>
        <time>2018-06-18T10:55:01Z</time>
      </trkpt>
      <trkpt lat="44.06087" lon="5.21583">
        <ele>284.69</ele>
        <time>2018-06-18T10:55:18Z</time>
      </trkpt>
      <trkpt lat="44.06094" lon="5.21581">
        <ele>284.69</ele>
        <time>2018-06-18T10:55:32Z</time>
      </trkpt>
      <trkpt lat="44.0609" lon="5.21575">
        <ele>284.69</ele>
        <time>2018-06-18T10:55:46Z</time>
      </trkpt>
      <trkpt lat="44.06091" lon="5.21568">
        <ele>285.65</ele>
        <time>2018-06-18T10:56:00Z</time>
      </trkpt>
      <trkpt lat="44.06091" lon="5.21567">
        <ele>285.65</ele>
        <time>2018-06-18T10:56:01Z</time>
      </trkpt>
      <trkpt lat="44.06089" lon="5.21567">
        <ele>286.13</ele>
        <time>2018-06-18T10:56:31Z</time>
      </trkpt>
      <trkpt lat="44.06091" lon="5.21572">
        <ele>285.17</ele>
        <time>2018-06-18T10:56:49Z</time>
      </trkpt>
      <trkpt lat="44.06091" lon="5.21576">
        <ele>284.69</ele>
        <time>2018-06-18T10:57:13Z</time>
      </trkpt>
      <trkpt lat="44.06085" lon="5.21583">
        <ele>284.21</ele>
        <time>2018-06-18T10:57:27Z</time>
      </trkpt>
      <trkpt lat="44.06083" lon="5.21585">
        <ele>283.25</ele>
        <time>2018-06-18T10:57:43Z</time>
      </trkpt>
      <trkpt lat="44.06078" lon="5.21595">
        <ele>282.28</ele>
        <time>2018-06-18T10:58:05Z</time>
      </trkpt>
      <trkpt lat="44.06066" lon="5.21601">
        <ele>280.36</ele>
        <time>2018-06-18T10:58:20Z</time>
      </trkpt>
      <trkpt lat="44.06061" lon="5.216">
        <ele>278.92</ele>
        <time>2018-06-18T10:58:34Z</time>
      </trkpt>
      <trkpt lat="44.06059" lon="5.21597">
        <ele>278.44</ele>
        <time>2018-06-18T10:58:49Z</time>
      </trkpt>
      <trkpt lat="44.06057" lon="5.21601">
        <ele>277</ele>
        <time>2018-06-18T10:59:07Z</time>
      </trkpt>
      <trkpt lat="44.06051" lon="5.21604">
        <ele>275.56</ele>
        <time>2018-06-18T10:59:27Z</time>
      </trkpt>
      <trkpt lat="44.06044" lon="5.2161">
        <ele>275.07</ele>
        <time>2018-06-18T10:59:52Z</time>
      </trkpt>
      <trkpt lat="44.06042" lon="5.2161">
        <ele>273.63</ele>
        <time>2018-06-18T11:00:06Z</time>
      </trkpt>
      <trkpt lat="44.0604" lon="5.21611">
        <ele>273.15</ele>
        <time>2018-06-18T11:00:23Z</time>
      </trkpt>
      <trkpt lat="44.06038" lon="5.21618">
        <ele>273.63</ele>
        <time>2018-06-18T11:00:39Z</time>
      </trkpt>
      <trkpt lat="44.06033" lon="5.21629">
        <ele>273.15</ele>
        <time>2018-06-18T11:00:51Z</time>
      </trkpt>
      <trkpt lat="44.06034" lon="5.21628">
        <ele>273.15</ele>
        <time>2018-06-18T11:01:10Z</time>
      </trkpt>
      <trkpt lat="44.06036" lon="5.21615">
        <ele>271.23</ele>
        <time>2018-06-18T11:01:29Z</time>
      </trkpt>
      <trkpt lat="44.0604" lon="5.21608">
        <ele>269.79</ele>
        <time>2018-06-18T11:01:43Z</time>
      </trkpt>
      <trkpt lat="44.06048" lon="5.21603">
        <ele>269.31</ele>
        <time>2018-06-18T11:02:02Z</time>
      </trkpt>
      <trkpt lat="44.06052" lon="5.21589">
        <ele>269.31</ele>
        <time>2018-06-18T11:02:27Z</time>
      </trkpt>
      <trkpt lat="44.06062" lon="5.21608">
        <ele>270.27</ele>
        <time>2018-06-18T11:02:50Z</time>
      </trkpt>
      <trkpt lat="44.06061" lon="5.21602">
        <ele>270.75</ele>
        <time>2018-06-18T11:03:10Z</time>
      </trkpt>
      <trkpt lat="44.06063" lon="5.21601">
        <ele>270.75</ele>
        <time>2018-06-18T11:03:34Z</time>
      </trkpt>
      <trkpt lat="44.06061" lon="5.21594">
        <ele>271.23</ele>
        <time>2018-06-18T11:03:54Z</time>
      </trkpt>
      <trkpt lat="44.06057" lon="5.21586">
        <ele>270.75</ele>
        <time>2018-06-18T11:04:23Z</time>
      </trkpt>
      <trkpt lat="44.06049" lon="5.21606">
        <ele>271.23</ele>
        <time>2018-06-18T11:04:46Z</time>
      </trkpt>
      <trkpt lat="44.06044" lon="5.21607">
        <ele>272.19</ele>
        <time>2018-06-18T11:05:00Z</time>
      </trkpt>
      <trkpt lat="44.06045" lon="5.21612">
        <ele>272.19</ele>
        <time>2018-06-18T11:05:22Z</time>
      </trkpt>
      <trkpt lat="44.06041" lon="5.21615">
        <ele>273.63</ele>
        <time>2018-06-18T11:05:39Z</time>
      </trkpt>
      <trkpt lat="44.06045" lon="5.21619">
        <ele>274.11</ele>
        <time>2018-06-18T11:05:55Z</time>
      </trkpt>
      <trkpt lat="44.06052" lon="5.21616">
        <ele>274.11</ele>
        <time>2018-06-18T11:06:17Z</time>
      </trkpt>
      <trkpt lat="44.06045" lon="5.21626">
        <ele>274.11</ele>
        <time>2018-06-18T11:06:35Z</time>
      </trkpt>
      <trkpt lat="44.06039" lon="5.21629">
        <ele>274.11</ele>
        <time>2018-06-18T11:06:48Z</time>
      </trkpt>
      <trkpt lat="44.0604" lon="5.21634">
        <ele>273.15</ele>
        <time>2018-06-18T11:07:14Z</time>
      </trkpt>
      <trkpt lat="44.06041" lon="5.21645">
        <ele>273.15</ele>
        <time>2018-06-18T11:07:28Z</time>
      </trkpt>
      <trkpt lat="44.06045" lon="5.21659">
        <ele>273.15</ele>
        <time>2018-06-18T11:07:42Z</time>
      </trkpt>
      <trkpt lat="44.06053" lon="5.21665">
        <ele>274.59</ele>
        <time>2018-06-18T11:07:57Z</time>
      </trkpt>
      <trkpt lat="44.06064" lon="5.21675">
        <ele>275.07</ele>
        <time>2018-06-18T11:08:12Z</time>
      </trkpt>
      <trkpt lat="44.06074" lon="5.21686">
        <ele>275.56</ele>
        <time>2018-06-18T11:08:27Z</time>
      </trkpt>
      <trkpt lat="44.06084" lon="5.21697">
        <ele>276.04</ele>
        <time>2018-06-18T11:08:43Z</time>
      </trkpt>
      <trkpt lat="44.06094" lon="5.21706">
        <ele>276.52</ele>
        <time>2018-06-18T11:08:55Z</time>
      </trkpt>
      <trkpt lat="44.06104" lon="5.21716">
        <ele>277</ele>
        <time>2018-06-18T11:09:07Z</time>
      </trkpt>
      <trkpt lat="44.06114" lon="5.2172">
        <ele>277</ele>
        <time>2018-06-18T11:09:20Z</time>
      </trkpt>
      <trkpt lat="44.06129" lon="5.21726">
        <ele>277.48</ele>
        <time>2018-06-18T11:09:36Z</time>
      </trkpt>
      <trkpt lat="44.06137" lon="5.21734">
        <ele>278.44</ele>
        <time>2018-06-18T11:09:48Z</time>
      </trkpt>
      <trkpt lat="44.06147" lon="5.21744">
        <ele>278.44</ele>
        <time>2018-06-18T11:10:02Z</time>
      </trkpt>
      <trkpt lat="44.06158" lon="5.21752">
        <ele>279.4</ele>
        <time>2018-06-18T11:10:15Z</time>
      </trkpt>
      <trkpt lat="44.06169" lon="5.21756">
        <ele>279.88</ele>
        <time>2018-06-18T11:10:29Z</time>
      </trkpt>
      <trkpt lat="44.06176" lon="5.21761">
        <ele>280.36</ele>
        <time>2018-06-18T11:10:42Z</time>
      </trkpt>
      <trkpt lat="44.06183" lon="5.21766">
        <ele>280.84</ele>
        <time>2018-06-18T11:10:53Z</time>
      </trkpt>
      <trkpt lat="44.06193" lon="5.21769">
        <ele>281.8</ele>
        <time>2018-06-18T11:11:08Z</time>
      </trkpt>
      <trkpt lat="44.06199" lon="5.21771">
        <ele>281.8</ele>
        <time>2018-06-18T11:11:20Z</time>
      </trkpt>
      <trkpt lat="44.06207" lon="5.21778">
        <ele>282.77</ele>
        <time>2018-06-18T11:11:33Z</time>
      </trkpt>
      <trkpt lat="44.06214" lon="5.21782">
        <ele>284.21</ele>
        <time>2018-06-18T11:11:48Z</time>
      </trkpt>
      <trkpt lat="44.06227" lon="5.21781">
        <ele>283.73</ele>
        <time>2018-06-18T11:12:05Z</time>
      </trkpt>
      <trkpt lat="44.06222" lon="5.21779">
        <ele>283.25</ele>
        <time>2018-06-18T11:12:19Z</time>
      </trkpt>
      <trkpt lat="44.06216" lon="5.21772">
        <ele>284.21</ele>
        <time>2018-06-18T11:12:32Z</time>
      </trkpt>
      <trkpt lat="44.06215" lon="5.21768">
        <ele>285.17</ele>
        <time>2018-06-18T11:12:53Z</time>
      </trkpt>
      <trkpt lat="44.06215" lon="5.2176">
        <ele>287.09</ele>
        <time>2018-06-18T11:13:05Z</time>
      </trkpt>
      <trkpt lat="44.06212" lon="5.21753">
        <ele>288.05</ele>
        <time>2018-06-18T11:13:19Z</time>
      </trkpt>
      <trkpt lat="44.06214" lon="5.21747">
        <ele>289.49</ele>
        <time>2018-06-18T11:13:34Z</time>
      </trkpt>
      <trkpt lat="44.0622" lon="5.2175">
        <ele>290.94</ele>
        <time>2018-06-18T11:13:47Z</time>
      </trkpt>
      <trkpt lat="44.06219" lon="5.21749">
        <ele>290.94</ele>
        <time>2018-06-18T11:14:06Z</time>
      </trkpt>
      <trkpt lat="44.06219" lon="5.21747">
        <ele>290.94</ele>
        <time>2018-06-18T11:14:29Z</time>
      </trkpt>
      <trkpt lat="44.06218" lon="5.21745">
        <ele>293.82</ele>
        <time>2018-06-18T11:14:31Z</time>
      </trkpt>
      <trkpt lat="44.06218" lon="5.21747">
        <ele>291.42</ele>
        <time>2018-06-18T11:14:34Z</time>
      </trkpt>
      <trkpt lat="44.06225" lon="5.21765">
        <ele>292.86</ele>
        <time>2018-06-18T11:14:51Z</time>
      </trkpt>
      <trkpt lat="44.06232" lon="5.21771">
        <ele>293.34</ele>
        <time>2018-06-18T11:15:05Z</time>
      </trkpt>
      <trkpt lat="44.06239" lon="5.21779">
        <ele>291.9</ele>
        <time>2018-06-18T11:15:17Z</time>
      </trkpt>
      <trkpt lat="44.06245" lon="5.21796">
        <ele>291.9</ele>
        <time>2018-06-18T11:15:32Z</time>
      </trkpt>
      <trkpt lat="44.06255" lon="5.21806">
        <ele>291.9</ele>
        <time>2018-06-18T11:15:46Z</time>
      </trkpt>
      <trkpt lat="44.06263" lon="5.21818">
        <ele>292.86</ele>
        <time>2018-06-18T11:15:58Z</time>
      </trkpt>
      <trkpt lat="44.06271" lon="5.21827">
        <ele>293.34</ele>
        <time>2018-06-18T11:16:11Z</time>
      </trkpt>
      <trkpt lat="44.06271" lon="5.21834">
        <ele>294.3</ele>
        <time>2018-06-18T11:16:23Z</time>
      </trkpt>
      <trkpt lat="44.06263" lon="5.21841">
        <ele>296.22</ele>
        <time>2018-06-18T11:16:38Z</time>
      </trkpt>
      <trkpt lat="44.0626" lon="5.21845">
        <ele>298.63</ele>
        <time>2018-06-18T11:16:52Z</time>
      </trkpt>
      <trkpt lat="44.06263" lon="5.21855">
        <ele>300.55</ele>
        <time>2018-06-18T11:17:05Z</time>
      </trkpt>
      <trkpt lat="44.06267" lon="5.21865">
        <ele>301.99</ele>
        <time>2018-06-18T11:17:18Z</time>
      </trkpt>
      <trkpt lat="44.06276" lon="5.21876">
        <ele>302.95</ele>
        <time>2018-06-18T11:17:32Z</time>
      </trkpt>
      <trkpt lat="44.06288" lon="5.21887">
        <ele>303.91</ele>
        <time>2018-06-18T11:17:48Z</time>
      </trkpt>
      <trkpt lat="44.06297" lon="5.21906">
        <ele>304.39</ele>
        <time>2018-06-18T11:18:05Z</time>
      </trkpt>
      <trkpt lat="44.0631" lon="5.21917">
        <ele>304.88</ele>
        <time>2018-06-18T11:18:20Z</time>
      </trkpt>
      <trkpt lat="44.06322" lon="5.21923">
        <ele>304.88</ele>
        <time>2018-06-18T11:18:35Z</time>
      </trkpt>
      <trkpt lat="44.06328" lon="5.21922">
        <ele>304.88</ele>
        <time>2018-06-18T11:18:51Z</time>
      </trkpt>
      <trkpt lat="44.0633" lon="5.21925">
        <ele>304.88</ele>
        <time>2018-06-18T11:19:09Z</time>
      </trkpt>
      <trkpt lat="44.0633" lon="5.21927">
        <ele>304.88</ele>
        <time>2018-06-18T11:19:31Z</time>
      </trkpt>
      <trkpt lat="44.06324" lon="5.21929">
        <ele>304.88</ele>
        <time>2018-06-18T11:19:48Z</time>
      </trkpt>
      <trkpt lat="44.06321" lon="5.2193">
        <ele>305.36</ele>
        <time>2018-06-18T11:20:04Z</time>
      </trkpt>
      <trkpt lat="44.06317" lon="5.21928">
        <ele>305.36</ele>
        <time>2018-06-18T11:20:32Z</time>
      </trkpt>
      <trkpt lat="44.06326" lon="5.21929">
        <ele>305.36</ele>
        <time>2018-06-18T11:20:48Z</time>
      </trkpt>
      <trkpt lat="44.06329" lon="5.21928">
        <ele>305.36</ele>
        <time>2018-06-18T11:21:07Z</time>
      </trkpt>
      <trkpt lat="44.06332" lon="5.21928">
        <ele>305.36</ele>
        <time>2018-06-18T11:21:30Z</time>
      </trkpt>
      <trkpt lat="44.0633" lon="5.21932">
        <ele>305.84</ele>
        <time>2018-06-18T11:21:51Z</time>
      </trkpt>
      <trkpt lat="44.0633" lon="5.21933">
        <ele>305.84</ele>
        <time>2018-06-18T11:22:08Z</time>
      </trkpt>
      <trkpt lat="44.0633" lon="5.21932">
        <ele>305.84</ele>
        <time>2018-06-18T11:22:26Z</time>
      </trkpt>
      <trkpt lat="44.06335" lon="5.21914">
        <ele>307.28</ele>
        <time>2018-06-18T11:22:42Z</time>
      </trkpt>
      <trkpt lat="44.06347" lon="5.21897">
        <ele>308.24</ele>
        <time>2018-06-18T11:22:59Z</time>
      </trkpt>
      <trkpt lat="44.06364" lon="5.21894">
        <ele>309.2</ele>
        <time>2018-06-18T11:23:13Z</time>
      </trkpt>
      <trkpt lat="44.06383" lon="5.21901">
        <ele>311.12</ele>
        <time>2018-06-18T11:23:31Z</time>
      </trkpt>
      <trkpt lat="44.06398" lon="5.21907">
        <ele>312.57</ele>
        <time>2018-06-18T11:23:48Z</time>
      </trkpt>
      <trkpt lat="44.06416" lon="5.21914">
        <ele>314.01</ele>
        <time>2018-06-18T11:24:04Z</time>
      </trkpt>
      <trkpt lat="44.06424" lon="5.21916">
        <ele>314.49</ele>
        <time>2018-06-18T11:24:11Z</time>
      </trkpt>
      <trkpt lat="44.0644" lon="5.2191">
        <ele>315.93</ele>
        <time>2018-06-18T11:24:28Z</time>
      </trkpt>
      <trkpt lat="44.06437" lon="5.2189">
        <ele>317.85</ele>
        <time>2018-06-18T11:24:46Z</time>
      </trkpt>
      <trkpt lat="44.06424" lon="5.21878">
        <ele>319.78</ele>
        <time>2018-06-18T11:25:03Z</time>
      </trkpt>
      <trkpt lat="44.0641" lon="5.21868">
        <ele>320.74</ele>
        <time>2018-06-18T11:25:19Z</time>
      </trkpt>
      <trkpt lat="44.06395" lon="5.21857">
        <ele>322.18</ele>
        <time>2018-06-18T11:25:34Z</time>
      </trkpt>
      <trkpt lat="44.06386" lon="5.21848">
        <ele>322.66</ele>
        <time>2018-06-18T11:25:48Z</time>
      </trkpt>
      <trkpt lat="44.06384" lon="5.21842">
        <ele>323.62</ele>
        <time>2018-06-18T11:26:09Z</time>
      </trkpt>
      <trkpt lat="44.06383" lon="5.2184">
        <ele>323.62</ele>
        <time>2018-06-18T11:26:37Z</time>
      </trkpt>
      <trkpt lat="44.06382" lon="5.21835">
        <ele>323.62</ele>
        <time>2018-06-18T11:27:02Z</time>
      </trkpt>
      <trkpt lat="44.06382" lon="5.21844">
        <ele>321.7</ele>
        <time>2018-06-18T11:27:20Z</time>
      </trkpt>
      <trkpt lat="44.06382" lon="5.21843">
        <ele>324.58</ele>
        <time>2018-06-18T11:27:21Z</time>
      </trkpt>
      <trkpt lat="44.06381" lon="5.21844">
        <ele>322.18</ele>
        <time>2018-06-18T11:27:38Z</time>
      </trkpt>
      <trkpt lat="44.06381" lon="5.21843">
        <ele>325.54</ele>
        <time>2018-06-18T11:27:44Z</time>
      </trkpt>
      <trkpt lat="44.06381" lon="5.21846">
        <ele>323.62</ele>
        <time>2018-06-18T11:28:16Z</time>
      </trkpt>
      <trkpt lat="44.06377" lon="5.21842">
        <ele>324.1</ele>
        <time>2018-06-18T11:28:40Z</time>
      </trkpt>
      <trkpt lat="44.06381" lon="5.21844">
        <ele>324.1</ele>
        <time>2018-06-18T11:29:01Z</time>
      </trkpt>
      <trkpt lat="44.0638" lon="5.21844">
        <ele>325.54</ele>
        <time>2018-06-18T11:29:05Z</time>
      </trkpt>
      <trkpt lat="44.0638" lon="5.21843">
        <ele>322.18</ele>
        <time>2018-06-18T11:29:09Z</time>
      </trkpt>
      <trkpt lat="44.0638" lon="5.21843">
        <ele>327.47</ele>
        <time>2018-06-18T11:29:10Z</time>
      </trkpt>
      <trkpt lat="44.06376" lon="5.21845">
        <ele>325.06</ele>
        <time>2018-06-18T11:29:31Z</time>
      </trkpt>
      <trkpt lat="44.06378" lon="5.21843">
        <ele>325.06</ele>
        <time>2018-06-18T11:29:48Z</time>
      </trkpt>
      <trkpt lat="44.06375" lon="5.2184">
        <ele>325.54</ele>
        <time>2018-06-18T11:30:16Z</time>
      </trkpt>
      <trkpt lat="44.06374" lon="5.21839">
        <ele>325.54</ele>
        <time>2018-06-18T11:30:45Z</time>
      </trkpt>
      <trkpt lat="44.06376" lon="5.2184">
        <ele>326.02</ele>
        <time>2018-06-18T11:31:07Z</time>
      </trkpt>
      <trkpt lat="44.06376" lon="5.21839">
        <ele>326.5</ele>
        <time>2018-06-18T11:31:35Z</time>
      </trkpt>
      <trkpt lat="44.06374" lon="5.21818">
        <ele>326.5</ele>
        <time>2018-06-18T11:31:51Z</time>
      </trkpt>
      <trkpt lat="44.06369" lon="5.21805">
        <ele>327.95</ele>
        <time>2018-06-18T11:32:04Z</time>
      </trkpt>
      <trkpt lat="44.0636" lon="5.21794">
        <ele>329.87</ele>
        <time>2018-06-18T11:32:18Z</time>
      </trkpt>
      <trkpt lat="44.06352" lon="5.2178">
        <ele>328.43</ele>
        <time>2018-06-18T11:32:34Z</time>
      </trkpt>
      <trkpt lat="44.06349" lon="5.21765">
        <ele>328.43</ele>
        <time>2018-06-18T11:32:48Z</time>
      </trkpt>
      <trkpt lat="44.06347" lon="5.21748">
        <ele>328.43</ele>
        <time>2018-06-18T11:33:01Z</time>
      </trkpt>
      <trkpt lat="44.06341" lon="5.21728">
        <ele>328.43</ele>
        <time>2018-06-18T11:33:15Z</time>
      </trkpt>
      <trkpt lat="44.06336" lon="5.21709">
        <ele>328.43</ele>
        <time>2018-06-18T11:33:30Z</time>
      </trkpt>
      <trkpt lat="44.06327" lon="5.21691">
        <ele>330.83</ele>
        <time>2018-06-18T11:33:45Z</time>
      </trkpt>
      <trkpt lat="44.06321" lon="5.21676">
        <ele>331.79</ele>
        <time>2018-06-18T11:33:59Z</time>
      </trkpt>
      <trkpt lat="44.06317" lon="5.21657">
        <ele>333.71</ele>
        <time>2018-06-18T11:34:15Z</time>
      </trkpt>
      <trkpt lat="44.06313" lon="5.21637">
        <ele>335.64</ele>
        <time>2018-06-18T11:34:30Z</time>
      </trkpt>
      <trkpt lat="44.06306" lon="5.21618">
        <ele>336.6</ele>
        <time>2018-06-18T11:34:46Z</time>
      </trkpt>
      <trkpt lat="44.063" lon="5.21593">
        <ele>338.04</ele>
        <time>2018-06-18T11:35:05Z</time>
      </trkpt>
      <trkpt lat="44.06297" lon="5.21569">
        <ele>339.48</ele>
        <time>2018-06-18T11:35:23Z</time>
      </trkpt>
      <trkpt lat="44.06296" lon="5.21564">
        <ele>339.48</ele>
        <time>2018-06-18T11:35:27Z</time>
      </trkpt>
      <trkpt lat="44.06295" lon="5.21544">
        <ele>340.44</ele>
        <time>2018-06-18T11:35:45Z</time>
      </trkpt>
      <trkpt lat="44.06299" lon="5.21526">
        <ele>340.92</ele>
        <time>2018-06-18T11:36:02Z</time>
      </trkpt>
      <trkpt lat="44.06294" lon="5.21508">
        <ele>339.48</ele>
        <time>2018-06-18T11:36:19Z</time>
      </trkpt>
      <trkpt lat="44.06288" lon="5.21485">
        <ele>339.48</ele>
        <time>2018-06-18T11:36:36Z</time>
      </trkpt>
      <trkpt lat="44.06285" lon="5.21469">
        <ele>338.52</ele>
        <time>2018-06-18T11:36:49Z</time>
      </trkpt>
      <trkpt lat="44.0628" lon="5.2145">
        <ele>338.52</ele>
        <time>2018-06-18T11:37:04Z</time>
      </trkpt>
      <trkpt lat="44.06284" lon="5.21441">
        <ele>338.04</ele>
        <time>2018-06-18T11:37:18Z</time>
      </trkpt>
      <trkpt lat="44.06295" lon="5.21429">
        <ele>338.04</ele>
        <time>2018-06-18T11:37:34Z</time>
      </trkpt>
      <trkpt lat="44.06306" lon="5.21414">
        <ele>338.04</ele>
        <time>2018-06-18T11:37:49Z</time>
      </trkpt>
      <trkpt lat="44.0631" lon="5.214">
        <ele>338.04</ele>
        <time>2018-06-18T11:38:04Z</time>
      </trkpt>
      <trkpt lat="44.06313" lon="5.2139">
        <ele>339</ele>
        <time>2018-06-18T11:38:11Z</time>
      </trkpt>
      <trkpt lat="44.0632" lon="5.21365">
        <ele>339</ele>
        <time>2018-06-18T11:38:29Z</time>
      </trkpt>
      <trkpt lat="44.06325" lon="5.21351">
        <ele>338.04</ele>
        <time>2018-06-18T11:38:40Z</time>
      </trkpt>
      <trkpt lat="44.06333" lon="5.21325">
        <ele>337.08</ele>
        <time>2018-06-18T11:38:59Z</time>
      </trkpt>
      <trkpt lat="44.06343" lon="5.21305">
        <ele>336.12</ele>
        <time>2018-06-18T11:39:17Z</time>
      </trkpt>
      <trkpt lat="44.06352" lon="5.21285">
        <ele>334.2</ele>
        <time>2018-06-18T11:39:36Z</time>
      </trkpt>
      <trkpt lat="44.06364" lon="5.21286">
        <ele>333.71</ele>
        <time>2018-06-18T11:39:53Z</time>
      </trkpt>
      <trkpt lat="44.0637" lon="5.21284">
        <ele>332.27</ele>
        <time>2018-06-18T11:40:10Z</time>
      </trkpt>
      <trkpt lat="44.06375" lon="5.21282">
        <ele>332.27</ele>
        <time>2018-06-18T11:40:26Z</time>
      </trkpt>
      <trkpt lat="44.06377" lon="5.21278">
        <ele>331.79</ele>
        <time>2018-06-18T11:40:42Z</time>
      </trkpt>
      <trkpt lat="44.06381" lon="5.21275">
        <ele>331.79</ele>
        <time>2018-06-18T11:40:58Z</time>
      </trkpt>
      <trkpt lat="44.06387" lon="5.21273">
        <ele>331.31</ele>
        <time>2018-06-18T11:41:15Z</time>
      </trkpt>
      <trkpt lat="44.0639" lon="5.21269">
        <ele>331.31</ele>
        <time>2018-06-18T11:41:29Z</time>
      </trkpt>
      <trkpt lat="44.06392" lon="5.21265">
        <ele>330.83</ele>
        <time>2018-06-18T11:41:42Z</time>
      </trkpt>
      <trkpt lat="44.06391" lon="5.21259">
        <ele>330.83</ele>
        <time>2018-06-18T11:41:54Z</time>
      </trkpt>
      <trkpt lat="44.06391" lon="5.2126">
        <ele>330.83</ele>
        <time>2018-06-18T11:42:11Z</time>
      </trkpt>
      <trkpt lat="44.06389" lon="5.2126">
        <ele>330.83</ele>
        <time>2018-06-18T11:42:34Z</time>
      </trkpt>
      <trkpt lat="44.06388" lon="5.21262">
        <ele>330.83</ele>
        <time>2018-06-18T11:42:55Z</time>
      </trkpt>
      <trkpt lat="44.06385" lon="5.21257">
        <ele>330.83</ele>
        <time>2018-06-18T11:43:13Z</time>
      </trkpt>
      <trkpt lat="44.06385" lon="5.21256">
        <ele>326.99</ele>
        <time>2018-06-18T11:43:17Z</time>
      </trkpt>
      <trkpt lat="44.06385" lon="5.21256">
        <ele>330.83</ele>
        <time>2018-06-18T11:43:18Z</time>
      </trkpt>
      <trkpt lat="44.06385" lon="5.21255">
        <ele>331.31</ele>
        <time>2018-06-18T11:43:38Z</time>
      </trkpt>
      <trkpt lat="44.06385" lon="5.21253">
        <ele>331.79</ele>
        <time>2018-06-18T11:44:13Z</time>
      </trkpt>
      <trkpt lat="44.06385" lon="5.21254">
        <ele>326.02</ele>
        <time>2018-06-18T11:44:23Z</time>
      </trkpt>
      <trkpt lat="44.06385" lon="5.21254">
        <ele>337.08</ele>
        <time>2018-06-18T11:44:24Z</time>
      </trkpt>
      <trkpt lat="44.06385" lon="5.21254">
        <ele>331.79</ele>
        <time>2018-06-18T11:44:25Z</time>
      </trkpt>
      <trkpt lat="44.06387" lon="5.21252">
        <ele>331.31</ele>
        <time>2018-06-18T11:44:44Z</time>
      </trkpt>
      <trkpt lat="44.06388" lon="5.21252">
        <ele>331.31</ele>
        <time>2018-06-18T11:44:55Z</time>
      </trkpt>
      <trkpt lat="44.06389" lon="5.2125">
        <ele>331.31</ele>
        <time>2018-06-18T11:45:20Z</time>
      </trkpt>
      <trkpt lat="44.06394" lon="5.21243">
        <ele>331.31</ele>
        <time>2018-06-18T11:45:35Z</time>
      </trkpt>
      <trkpt lat="44.06395" lon="5.21246">
        <ele>331.79</ele>
        <time>2018-06-18T11:45:47Z</time>
      </trkpt>
      <trkpt lat="44.06397" lon="5.21245">
        <ele>331.79</ele>
        <time>2018-06-18T11:45:58Z</time>
      </trkpt>
      <trkpt lat="44.06397" lon="5.2124">
        <ele>331.31</ele>
        <time>2018-06-18T11:46:12Z</time>
      </trkpt>
      <trkpt lat="44.06399" lon="5.21232">
        <ele>329.87</ele>
        <time>2018-06-18T11:46:28Z</time>
      </trkpt>
      <trkpt lat="44.06389" lon="5.21224">
        <ele>329.87</ele>
        <time>2018-06-18T11:46:46Z</time>
      </trkpt>
      <trkpt lat="44.06385" lon="5.2122">
        <ele>329.87</ele>
        <time>2018-06-18T11:46:51Z</time>
      </trkpt>
      <trkpt lat="44.06378" lon="5.21208">
        <ele>329.87</ele>
        <time>2018-06-18T11:47:06Z</time>
      </trkpt>
      <trkpt lat="44.06371" lon="5.21201">
        <ele>329.87</ele>
        <time>2018-06-18T11:47:21Z</time>
      </trkpt>
      <trkpt lat="44.06373" lon="5.21203">
        <ele>329.87</ele>
        <time>2018-06-18T11:47:37Z</time>
      </trkpt>
      <trkpt lat="44.06375" lon="5.21203">
        <ele>330.35</ele>
        <time>2018-06-18T11:48:06Z</time>
      </trkpt>
      <trkpt lat="44.06377" lon="5.21202">
        <ele>328.91</ele>
        <time>2018-06-18T11:48:28Z</time>
      </trkpt>
      <trkpt lat="44.06374" lon="5.21202">
        <ele>328.91</ele>
        <time>2018-06-18T11:48:44Z</time>
      </trkpt>
      <trkpt lat="44.06375" lon="5.21201">
        <ele>329.39</ele>
        <time>2018-06-18T11:49:07Z</time>
      </trkpt>
      <trkpt lat="44.06382" lon="5.2119">
        <ele>328.43</ele>
        <time>2018-06-18T11:49:22Z</time>
      </trkpt>
      <trkpt lat="44.06392" lon="5.21177">
        <ele>326.99</ele>
        <time>2018-06-18T11:49:40Z</time>
      </trkpt>
      <trkpt lat="44.06403" lon="5.2116">
        <ele>325.54</ele>
        <time>2018-06-18T11:49:59Z</time>
      </trkpt>
      <trkpt lat="44.06415" lon="5.21141">
        <ele>324.58</ele>
        <time>2018-06-18T11:50:20Z</time>
      </trkpt>
      <trkpt lat="44.06426" lon="5.21127">
        <ele>324.1</ele>
        <time>2018-06-18T11:50:37Z</time>
      </trkpt>
      <trkpt lat="44.06438" lon="5.21109">
        <ele>322.66</ele>
        <time>2018-06-18T11:50:56Z</time>
      </trkpt>
      <trkpt lat="44.06442" lon="5.2109">
        <ele>321.22</ele>
        <time>2018-06-18T11:51:13Z</time>
      </trkpt>
      <trkpt lat="44.06442" lon="5.21075">
        <ele>320.26</ele>
        <time>2018-06-18T11:51:28Z</time>
      </trkpt>
      <trkpt lat="44.06439" lon="5.21055">
        <ele>318.81</ele>
        <time>2018-06-18T11:51:46Z</time>
      </trkpt>
      <trkpt lat="44.06437" lon="5.21048">
        <ele>318.33</ele>
        <time>2018-06-18T11:51:51Z</time>
      </trkpt>
      <trkpt lat="44.06432" lon="5.21023">
        <ele>317.85</ele>
        <time>2018-06-18T11:52:11Z</time>
      </trkpt>
      <trkpt lat="44.06434" lon="5.20991">
        <ele>317.37</ele>
        <time>2018-06-18T11:52:34Z</time>
      </trkpt>
      <trkpt lat="44.06445" lon="5.20962">
        <ele>317.37</ele>
        <time>2018-06-18T11:52:56Z</time>
      </trkpt>
      <trkpt lat="44.06454" lon="5.20948">
        <ele>316.89</ele>
        <time>2018-06-18T11:53:13Z</time>
      </trkpt>
      <trkpt lat="44.06459" lon="5.2093">
        <ele>316.41</ele>
        <time>2018-06-18T11:53:28Z</time>
      </trkpt>
      <trkpt lat="44.06463" lon="5.20907">
        <ele>316.41</ele>
        <time>2018-06-18T11:53:44Z</time>
      </trkpt>
      <trkpt lat="44.06464" lon="5.20897">
        <ele>317.37</ele>
        <time>2018-06-18T11:53:54Z</time>
      </trkpt>
      <trkpt lat="44.06468" lon="5.20878">
        <ele>318.33</ele>
        <time>2018-06-18T11:54:10Z</time>
      </trkpt>
      <trkpt lat="44.06474" lon="5.20857">
        <ele>319.3</ele>
        <time>2018-06-18T11:54:25Z</time>
      </trkpt>
      <trkpt lat="44.06482" lon="5.20836">
        <ele>319.78</ele>
        <time>2018-06-18T11:54:41Z</time>
      </trkpt>
      <trkpt lat="44.06488" lon="5.20813">
        <ele>319.78</ele>
        <time>2018-06-18T11:54:57Z</time>
      </trkpt>
      <trkpt lat="44.06491" lon="5.20794">
        <ele>320.74</ele>
        <time>2018-06-18T11:55:13Z</time>
      </trkpt>
      <trkpt lat="44.06492" lon="5.2077">
        <ele>322.18</ele>
        <time>2018-06-18T11:55:30Z</time>
      </trkpt>
      <trkpt lat="44.06493" lon="5.2075">
        <ele>322.66</ele>
        <time>2018-06-18T11:55:45Z</time>
      </trkpt>
      <trkpt lat="44.06495" lon="5.20723">
        <ele>323.62</ele>
        <time>2018-06-18T11:56:02Z</time>
      </trkpt>
      <trkpt lat="44.06499" lon="5.20695">
        <ele>322.18</ele>
        <time>2018-06-18T11:56:20Z</time>
      </trkpt>
      <trkpt lat="44.06502" lon="5.20672">
        <ele>322.18</ele>
        <time>2018-06-18T11:56:37Z</time>
      </trkpt>
      <trkpt lat="44.06504" lon="5.20651">
        <ele>321.22</ele>
        <time>2018-06-18T11:56:52Z</time>
      </trkpt>
      <trkpt lat="44.06508" lon="5.20631">
        <ele>320.26</ele>
        <time>2018-06-18T11:57:06Z</time>
      </trkpt>
      <trkpt lat="44.06512" lon="5.20609">
        <ele>319.78</ele>
        <time>2018-06-18T11:57:20Z</time>
      </trkpt>
      <trkpt lat="44.06516" lon="5.2059">
        <ele>319.3</ele>
        <time>2018-06-18T11:57:35Z</time>
      </trkpt>
      <trkpt lat="44.06517" lon="5.20587">
        <ele>320.74</ele>
        <time>2018-06-18T11:57:41Z</time>
      </trkpt>
      <trkpt lat="44.06517" lon="5.20582">
        <ele>319.78</ele>
        <time>2018-06-18T11:57:55Z</time>
      </trkpt>
      <trkpt lat="44.06518" lon="5.2058">
        <ele>319.3</ele>
        <time>2018-06-18T11:58:04Z</time>
      </trkpt>
      <trkpt lat="44.06519" lon="5.20578">
        <ele>322.18</ele>
        <time>2018-06-18T11:58:06Z</time>
      </trkpt>
      <trkpt lat="44.06525" lon="5.20573">
        <ele>318.81</ele>
        <time>2018-06-18T11:58:22Z</time>
      </trkpt>
      <trkpt lat="44.06538" lon="5.20558">
        <ele>318.81</ele>
        <time>2018-06-18T11:58:39Z</time>
      </trkpt>
      <trkpt lat="44.06548" lon="5.20545">
        <ele>318.81</ele>
        <time>2018-06-18T11:58:54Z</time>
      </trkpt>
      <trkpt lat="44.06559" lon="5.20546">
        <ele>319.3</ele>
        <time>2018-06-18T11:59:07Z</time>
      </trkpt>
      <trkpt lat="44.06572" lon="5.20539">
        <ele>319.3</ele>
        <time>2018-06-18T11:59:23Z</time>
      </trkpt>
      <trkpt lat="44.06582" lon="5.20528">
        <ele>316.41</ele>
        <time>2018-06-18T11:59:39Z</time>
      </trkpt>
      <trkpt lat="44.06591" lon="5.20513">
        <ele>314.49</ele>
        <time>2018-06-18T11:59:56Z</time>
      </trkpt>
      <trkpt lat="44.06591" lon="5.20489">
        <ele>313.05</ele>
        <time>2018-06-18T12:00:13Z</time>
      </trkpt>
      <trkpt lat="44.06587" lon="5.2048">
        <ele>311.12</ele>
        <time>2018-06-18T12:00:30Z</time>
      </trkpt>
      <trkpt lat="44.06581" lon="5.20468">
        <ele>309.68</ele>
        <time>2018-06-18T12:00:46Z</time>
      </trkpt>
      <trkpt lat="44.06573" lon="5.20451">
        <ele>308.24</ele>
        <time>2018-06-18T12:01:04Z</time>
      </trkpt>
      <trkpt lat="44.06565" lon="5.20429">
        <ele>307.76</ele>
        <time>2018-06-18T12:01:20Z</time>
      </trkpt>
      <trkpt lat="44.06559" lon="5.20417">
        <ele>307.76</ele>
        <time>2018-06-18T12:01:31Z</time>
      </trkpt>
      <trkpt lat="44.06553" lon="5.20405">
        <ele>307.76</ele>
        <time>2018-06-18T12:01:41Z</time>
      </trkpt>
      <trkpt lat="44.06552" lon="5.20398">
        <ele>306.8</ele>
        <time>2018-06-18T12:01:54Z</time>
      </trkpt>
      <trkpt lat="44.06549" lon="5.20395">
        <ele>306.8</ele>
        <time>2018-06-18T12:02:14Z</time>
      </trkpt>
      <trkpt lat="44.06551" lon="5.20401">
        <ele>306.8</ele>
        <time>2018-06-18T12:02:36Z</time>
      </trkpt>
      <trkpt lat="44.0655" lon="5.20398">
        <ele>308.24</ele>
        <time>2018-06-18T12:02:46Z</time>
      </trkpt>
      <trkpt lat="44.06542" lon="5.20391">
        <ele>308.24</ele>
        <time>2018-06-18T12:03:08Z</time>
      </trkpt>
      <trkpt lat="44.06532" lon="5.20387">
        <ele>308.24</ele>
        <time>2018-06-18T12:03:25Z</time>
      </trkpt>
      <trkpt lat="44.06521" lon="5.2039">
        <ele>308.24</ele>
        <time>2018-06-18T12:03:41Z</time>
      </trkpt>
      <trkpt lat="44.06512" lon="5.20396">
        <ele>308.24</ele>
        <time>2018-06-18T12:03:54Z</time>
      </trkpt>
      <trkpt lat="44.0651" lon="5.20391">
        <ele>306.32</ele>
        <time>2018-06-18T12:04:07Z</time>
      </trkpt>
      <trkpt lat="44.06516" lon="5.20382">
        <ele>304.39</ele>
        <time>2018-06-18T12:04:22Z</time>
      </trkpt>
      <trkpt lat="44.0652" lon="5.20368">
        <ele>302.95</ele>
        <time>2018-06-18T12:04:36Z</time>
      </trkpt>
      <trkpt lat="44.06517" lon="5.20353">
        <ele>301.51</ele>
        <time>2018-06-18T12:04:50Z</time>
      </trkpt>
      <trkpt lat="44.06522" lon="5.20336">
        <ele>301.03</ele>
        <time>2018-06-18T12:05:05Z</time>
      </trkpt>
      <trkpt lat="44.06528" lon="5.20322">
        <ele>299.11</ele>
        <time>2018-06-18T12:05:18Z</time>
      </trkpt>
      <trkpt lat="44.0653" lon="5.20304">
        <ele>297.18</ele>
        <time>2018-06-18T12:05:33Z</time>
      </trkpt>
      <trkpt lat="44.06535" lon="5.20287">
        <ele>295.74</ele>
        <time>2018-06-18T12:05:48Z</time>
      </trkpt>
      <trkpt lat="44.06539" lon="5.20266">
        <ele>294.3</ele>
        <time>2018-06-18T12:06:04Z</time>
      </trkpt>
      <trkpt lat="44.06542" lon="5.20246">
        <ele>293.34</ele>
        <time>2018-06-18T12:06:17Z</time>
      </trkpt>
      <trkpt lat="44.06545" lon="5.20225">
        <ele>292.38</ele>
        <time>2018-06-18T12:06:32Z</time>
      </trkpt>
      <trkpt lat="44.06544" lon="5.20208">
        <ele>290.94</ele>
        <time>2018-06-18T12:06:47Z</time>
      </trkpt>
      <trkpt lat="44.06545" lon="5.20186">
        <ele>290.46</ele>
        <time>2018-06-18T12:07:01Z</time>
      </trkpt>
      <trkpt lat="44.06551" lon="5.20176">
        <ele>290.46</ele>
        <time>2018-06-18T12:07:18Z</time>
      </trkpt>
      <trkpt lat="44.06553" lon="5.20166">
        <ele>289.97</ele>
        <time>2018-06-18T12:07:35Z</time>
      </trkpt>
      <trkpt lat="44.06553" lon="5.20157">
        <ele>289.97</ele>
        <time>2018-06-18T12:07:52Z</time>
      </trkpt>
      <trkpt lat="44.06554" lon="5.20146">
        <ele>289.01</ele>
        <time>2018-06-18T12:08:08Z</time>
      </trkpt>
      <trkpt lat="44.06552" lon="5.20129">
        <ele>287.09</ele>
        <time>2018-06-18T12:08:24Z</time>
      </trkpt>
      <trkpt lat="44.06556" lon="5.20114">
        <ele>286.13</ele>
        <time>2018-06-18T12:08:38Z</time>
      </trkpt>
      <trkpt lat="44.06557" lon="5.20102">
        <ele>283.73</ele>
        <time>2018-06-18T12:08:52Z</time>
      </trkpt>
      <trkpt lat="44.06559" lon="5.20082">
        <ele>281.8</ele>
        <time>2018-06-18T12:09:10Z</time>
      </trkpt>
      <trkpt lat="44.06562" lon="5.20064">
        <ele>279.4</ele>
        <time>2018-06-18T12:09:28Z</time>
      </trkpt>
      <trkpt lat="44.06566" lon="5.20054">
        <ele>278.44</ele>
        <time>2018-06-18T12:09:42Z</time>
      </trkpt>
      <trkpt lat="44.06568" lon="5.20038">
        <ele>276.52</ele>
        <time>2018-06-18T12:09:59Z</time>
      </trkpt>
      <trkpt lat="44.06571" lon="5.20025">
        <ele>274.59</ele>
        <time>2018-06-18T12:10:13Z</time>
      </trkpt>
      <trkpt lat="44.06575" lon="5.20015">
        <ele>273.15</ele>
        <time>2018-06-18T12:10:26Z</time>
      </trkpt>
      <trkpt lat="44.06576" lon="5.20002">
        <ele>271.71</ele>
        <time>2018-06-18T12:10:42Z</time>
      </trkpt>
      <trkpt lat="44.06583" lon="5.19988">
        <ele>270.75</ele>
        <time>2018-06-18T12:10:56Z</time>
      </trkpt>
      <trkpt lat="44.0659" lon="5.19973">
        <ele>270.75</ele>
        <time>2018-06-18T12:11:10Z</time>
      </trkpt>
      <trkpt lat="44.066" lon="5.19963">
        <ele>270.27</ele>
        <time>2018-06-18T12:11:24Z</time>
      </trkpt>
      <trkpt lat="44.0661" lon="5.19955">
        <ele>267.86</ele>
        <time>2018-06-18T12:11:40Z</time>
      </trkpt>
      <trkpt lat="44.06618" lon="5.19945">
        <ele>265.94</ele>
        <time>2018-06-18T12:11:55Z</time>
      </trkpt>
      <trkpt lat="44.06625" lon="5.19938">
        <ele>264.5</ele>
        <time>2018-06-18T12:12:10Z</time>
      </trkpt>
      <trkpt lat="44.06631" lon="5.19931">
        <ele>263.06</ele>
        <time>2018-06-18T12:12:24Z</time>
      </trkpt>
      <trkpt lat="44.06644" lon="5.19935">
        <ele>262.1</ele>
        <time>2018-06-18T12:12:38Z</time>
      </trkpt>
      <trkpt lat="44.06659" lon="5.19943">
        <ele>261.14</ele>
        <time>2018-06-18T12:12:54Z</time>
      </trkpt>
      <trkpt lat="44.06667" lon="5.19949">
        <ele>262.1</ele>
        <time>2018-06-18T12:13:02Z</time>
      </trkpt>
      <trkpt lat="44.06682" lon="5.19949">
        <ele>262.1</ele>
        <time>2018-06-18T12:13:18Z</time>
      </trkpt>
      <trkpt lat="44.06684" lon="5.19948">
        <ele>261.14</ele>
        <time>2018-06-18T12:13:21Z</time>
      </trkpt>
      <trkpt lat="44.06691" lon="5.19941">
        <ele>259.21</ele>
        <time>2018-06-18T12:13:36Z</time>
      </trkpt>
      <trkpt lat="44.06692" lon="5.1993">
        <ele>257.29</ele>
        <time>2018-06-18T12:13:52Z</time>
      </trkpt>
      <trkpt lat="44.06693" lon="5.19922">
        <ele>256.33</ele>
        <time>2018-06-18T12:14:05Z</time>
      </trkpt>
      <trkpt lat="44.06695" lon="5.19908">
        <ele>255.37</ele>
        <time>2018-06-18T12:14:19Z</time>
      </trkpt>
      <trkpt lat="44.06703" lon="5.19884">
        <ele>255.37</ele>
        <time>2018-06-18T12:14:36Z</time>
      </trkpt>
      <trkpt lat="44.06711" lon="5.19869">
        <ele>254.41</ele>
        <time>2018-06-18T12:14:50Z</time>
      </trkpt>
      <trkpt lat="44.06719" lon="5.19854">
        <ele>253.93</ele>
        <time>2018-06-18T12:15:07Z</time>
      </trkpt>
      <trkpt lat="44.0673" lon="5.19839">
        <ele>252.96</ele>
        <time>2018-06-18T12:15:24Z</time>
      </trkpt>
      <trkpt lat="44.06738" lon="5.19823">
        <ele>252.48</ele>
        <time>2018-06-18T12:15:41Z</time>
      </trkpt>
      <trkpt lat="44.06747" lon="5.1981">
        <ele>251.52</ele>
        <time>2018-06-18T12:15:57Z</time>
      </trkpt>
      <trkpt lat="44.06762" lon="5.198">
        <ele>250.08</ele>
        <time>2018-06-18T12:16:13Z</time>
      </trkpt>
      <trkpt lat="44.06773" lon="5.19796">
        <ele>249.6</ele>
        <time>2018-06-18T12:16:30Z</time>
      </trkpt>
      <trkpt lat="44.06783" lon="5.19791">
        <ele>248.64</ele>
        <time>2018-06-18T12:16:47Z</time>
      </trkpt>
      <trkpt lat="44.06792" lon="5.19786">
        <ele>248.16</ele>
        <time>2018-06-18T12:16:58Z</time>
      </trkpt>
      <trkpt lat="44.06805" lon="5.19779">
        <ele>247.68</ele>
        <time>2018-06-18T12:17:15Z</time>
      </trkpt>
      <trkpt lat="44.06813" lon="5.19777">
        <ele>247.2</ele>
        <time>2018-06-18T12:17:34Z</time>
      </trkpt>
      <trkpt lat="44.0682" lon="5.19776">
        <ele>247.2</ele>
        <time>2018-06-18T12:17:48Z</time>
      </trkpt>
      <trkpt lat="44.0683" lon="5.19771">
        <ele>246.23</ele>
        <time>2018-06-18T12:18:04Z</time>
      </trkpt>
      <trkpt lat="44.06843" lon="5.19759">
        <ele>245.27</ele>
        <time>2018-06-18T12:18:23Z</time>
      </trkpt>
      <trkpt lat="44.06852" lon="5.1975">
        <ele>244.79</ele>
        <time>2018-06-18T12:18:37Z</time>
      </trkpt>
      <trkpt lat="44.06861" lon="5.19738">
        <ele>244.31</ele>
        <time>2018-06-18T12:18:53Z</time>
      </trkpt>
      <trkpt lat="44.06867" lon="5.19728">
        <ele>243.35</ele>
        <time>2018-06-18T12:19:07Z</time>
      </trkpt>
      <trkpt lat="44.06879" lon="5.19715">
        <ele>242.87</ele>
        <time>2018-06-18T12:19:24Z</time>
      </trkpt>
      <trkpt lat="44.0689" lon="5.19702">
        <ele>242.87</ele>
        <time>2018-06-18T12:19:40Z</time>
      </trkpt>
      <trkpt lat="44.06904" lon="5.19692">
        <ele>242.39</ele>
        <time>2018-06-18T12:19:57Z</time>
      </trkpt>
      <trkpt lat="44.06922" lon="5.19685">
        <ele>241.91</ele>
        <time>2018-06-18T12:20:15Z</time>
      </trkpt>
      <trkpt lat="44.06925" lon="5.19683">
        <ele>241.91</ele>
        <time>2018-06-18T12:20:19Z</time>
      </trkpt>
      <trkpt lat="44.06936" lon="5.1969">
        <ele>241.43</ele>
        <time>2018-06-18T12:20:35Z</time>
      </trkpt>
      <trkpt lat="44.06939" lon="5.1969">
        <ele>242.39</ele>
        <time>2018-06-18T12:20:47Z</time>
      </trkpt>
      <trkpt lat="44.0694" lon="5.19691">
        <ele>241.43</ele>
        <time>2018-06-18T12:21:03Z</time>
      </trkpt>
      <trkpt lat="44.06941" lon="5.19688">
        <ele>240.95</ele>
        <time>2018-06-18T12:21:32Z</time>
      </trkpt>
      <trkpt lat="44.06943" lon="5.19688">
        <ele>241.43</ele>
        <time>2018-06-18T12:21:53Z</time>
      </trkpt>
      <trkpt lat="44.06939" lon="5.19684">
        <ele>240.95</ele>
        <time>2018-06-18T12:22:14Z</time>
      </trkpt>
      <trkpt lat="44.0694" lon="5.19687">
        <ele>240.95</ele>
        <time>2018-06-18T12:22:40Z</time>
      </trkpt>
      <trkpt lat="44.06939" lon="5.19682">
        <ele>241.43</ele>
        <time>2018-06-18T12:23:07Z</time>
      </trkpt>
      <trkpt lat="44.0694" lon="5.19681">
        <ele>241.43</ele>
        <time>2018-06-18T12:23:31Z</time>
      </trkpt>
      <trkpt lat="44.06938" lon="5.19681">
        <ele>241.91</ele>
        <time>2018-06-18T12:23:57Z</time>
      </trkpt>
      <trkpt lat="44.06937" lon="5.19684">
        <ele>242.87</ele>
        <time>2018-06-18T12:24:23Z</time>
      </trkpt>
      <trkpt lat="44.06941" lon="5.19686">
        <ele>242.87</ele>
        <time>2018-06-18T12:24:44Z</time>
      </trkpt>
    </trkseg>
  </trk>
</gpx>